DLH402 EDDF-KEWR
Flight info
| Callsign | DLH402 |
|---|---|
| Flight time | 7h 44m |
| Altitude | 36000 |
| Route | OBOKA3M/25C OBOKA Z29 TORNU DCT VICOT DCT GALSO Q63 KOPUL Q60 OKSAW DCT BIBPE DCT TIGWE DCT ARPAK DCT FELCA DCT OFSOX DCT SLANY DCT DIMUS DCT MALOT/M082F360 DCT 54N020W 55N030W 55N040W 54N050W DCT NEEKO/N0484F360 N622E TAFFY/N0472F380 DCT KJOHN DCT HANAA FLOSI4 |
| Aircraft | A346/H-SDE2E3FGHIJ3J4J5M1RWXY/LB1D1 |
Departure
| Time | 2026-05-04 16:02 |
|---|---|
| Airport | Frankfurt Main Airport (EDDF) |
Arrival
| Time | 2026-05-04 23:47 |
|---|---|
| Airport | Newark Liberty International Airport (KEWR) |
| Time | Latitude | Longitude | Altitude | Speed | Heading |
|---|---|---|---|---|---|
| 2026-05-04 15:35 | 50.04688 | 8.56166 | 377 ft | 0 kts | 340° |
| 2026-05-04 15:45 | 50.04683 | 8.56168 | 376 ft | 2 kts | 340° |
| 2026-05-04 15:45 | 50.04669 | 8.56176 | 376 ft | 2 kts | 340° |
| 2026-05-04 15:46 | 50.04655 | 8.56185 | 376 ft | 2 kts | 340° |
| 2026-05-04 15:46 | 50.04641 | 8.56193 | 376 ft | 2 kts | 340° |
| 2026-05-04 15:46 | 50.04632 | 8.56198 | 376 ft | 2 kts | 333° |
| 2026-05-04 15:46 | 50.04621 | 8.56213 | 376 ft | 2 kts | 294° |
| 2026-05-04 15:47 | 50.04619 | 8.56236 | 376 ft | 2 kts | 262° |
| 2026-05-04 15:47 | 50.04621 | 8.56248 | 376 ft | 1 kts | 248° |
| 2026-05-04 15:47 | 50.04622 | 8.56251 | 376 ft | 0 kts | 249° |
| 2026-05-04 15:49 | 50.04620 | 8.56243 | 376 ft | 2 kts | 249° |
| 2026-05-04 15:49 | 50.04610 | 8.56205 | 376 ft | 6 kts | 250° |
| 2026-05-04 15:49 | 50.04592 | 8.56125 | 376 ft | 9 kts | 251° |
| 2026-05-04 15:50 | 50.04568 | 8.56021 | 376 ft | 11 kts | 245° |
| 2026-05-04 15:50 | 50.04507 | 8.55942 | 376 ft | 12 kts | 200° |
| 2026-05-04 15:50 | 50.04419 | 8.55911 | 374 ft | 12 kts | 184° |
| 2026-05-04 15:50 | 50.04334 | 8.55936 | 373 ft | 9 kts | 160° |
| 2026-05-04 15:51 | 50.04255 | 8.55941 | 370 ft | 13 kts | 206° |
| 2026-05-04 15:51 | 50.04171 | 8.55927 | 366 ft | 11 kts | 162° |
| 2026-05-04 15:51 | 50.04109 | 8.55963 | 365 ft | 9 kts | 160° |
| 2026-05-04 15:51 | 50.04071 | 8.56024 | 364 ft | 8 kts | 94° |
| 2026-05-04 15:52 | 50.04090 | 8.56123 | 366 ft | 9 kts | 70° |
| 2026-05-04 15:52 | 50.04113 | 8.56220 | 367 ft | 9 kts | 69° |
| 2026-05-04 15:52 | 50.04139 | 8.56327 | 368 ft | 11 kts | 70° |
| 2026-05-04 15:52 | 50.04166 | 8.56443 | 370 ft | 12 kts | 70° |
| 2026-05-04 15:53 | 50.04196 | 8.56568 | 371 ft | 12 kts | 70° |
| 2026-05-04 15:53 | 50.04229 | 8.56702 | 373 ft | 12 kts | 70° |
| 2026-05-04 15:53 | 50.04258 | 8.56825 | 376 ft | 11 kts | 70° |
| 2026-05-04 15:53 | 50.04285 | 8.56939 | 378 ft | 11 kts | 70° |
| 2026-05-04 15:54 | 50.04314 | 8.57064 | 379 ft | 13 kts | 70° |
| 2026-05-04 15:54 | 50.04349 | 8.57207 | 379 ft | 15 kts | 70° |
| 2026-05-04 15:54 | 50.04388 | 8.57369 | 380 ft | 16 kts | 70° |
| 2026-05-04 15:54 | 50.04430 | 8.57545 | 378 ft | 18 kts | 70° |
| 2026-05-04 15:55 | 50.04474 | 8.57729 | 380 ft | 17 kts | 70° |
| 2026-05-04 15:55 | 50.04514 | 8.57895 | 384 ft | 15 kts | 70° |
| 2026-05-04 15:55 | 50.04551 | 8.58050 | 386 ft | 15 kts | 70° |
| 2026-05-04 15:55 | 50.04588 | 8.58207 | 387 ft | 15 kts | 70° |
| 2026-05-04 15:56 | 50.04617 | 8.58328 | 388 ft | 9 kts | 70° |
| 2026-05-04 15:56 | 50.04635 | 8.58403 | 386 ft | 2 kts | 70° |
| 2026-05-04 15:56 | 50.04636 | 8.58408 | 385 ft | 0 kts | 70° |
| 2026-05-04 15:59 | 50.04644 | 8.58441 | 384 ft | 6 kts | 69° |
| 2026-05-04 15:59 | 50.04653 | 8.58531 | 381 ft | 8 kts | 109° |
| 2026-05-04 16:00 | 50.04597 | 8.58590 | 378 ft | 11 kts | 158° |
| 2026-05-04 16:00 | 50.04533 | 8.58630 | 375 ft | 7 kts | 158° |
| 2026-05-04 16:00 | 50.04504 | 8.58636 | 374 ft | 3 kts | 209° |
| 2026-05-04 16:00 | 50.04494 | 8.58620 | 375 ft | 0 kts | 242° |
| 2026-05-04 16:01 | 50.04494 | 8.58617 | 375 ft | 0 kts | 249° |
| 2026-05-04 16:01 | 50.04488 | 8.58594 | 376 ft | 15 kts | 249° |
| 2026-05-04 16:01 | 50.04375 | 8.58120 | 383 ft | 77 kts | 250° |
| 2026-05-04 16:02 | 50.04111 | 8.57028 | 374 ft | 134 kts | 250° |
| 2026-05-04 16:02 | 50.03732 | 8.55434 | 356 ft | 179 kts | 250° |
| 2026-05-04 16:02 | 50.02819 | 8.51670 | 1204 ft | 189 kts | 250° |
| 2026-05-04 16:03 | 50.02159 | 8.49925 | 1680 ft | 193 kts | 220° |
| 2026-05-04 16:03 | 50.00948 | 8.49042 | 2140 ft | 198 kts | 198° |
| 2026-05-04 16:03 | 49.99653 | 8.48517 | 2420 ft | 207 kts | 196° |
| 2026-05-04 16:03 | 49.98238 | 8.47956 | 2783 ft | 211 kts | 196° |
| 2026-05-04 16:04 | 49.96814 | 8.47378 | 3214 ft | 213 kts | 197° |
| 2026-05-04 16:04 | 49.93864 | 8.46077 | 3867 ft | 232 kts | 198° |
| 2026-05-04 16:04 | 49.92283 | 8.45295 | 4091 ft | 248 kts | 206° |
| 2026-05-04 16:05 | 49.90916 | 8.43671 | 4640 ft | 249 kts | 234° |
| 2026-05-04 16:05 | 49.90011 | 8.41443 | 5319 ft | 247 kts | 240° |
| 2026-05-04 16:05 | 49.88589 | 8.36587 | 6533 ft | 254 kts | 263° |
| 2026-05-04 16:06 | 49.88580 | 8.33810 | 6953 ft | 267 kts | 273° |
| 2026-05-04 16:06 | 49.89419 | 8.26033 | 8514 ft | 286 kts | 292° |
| 2026-05-04 16:07 | 49.90873 | 8.22536 | 9396 ft | 292 kts | 304° |
| 2026-05-04 16:07 | 49.94836 | 8.15053 | 10797 ft | 322 kts | 313° |
| 2026-05-04 16:08 | 49.96548 | 8.12640 | 11069 ft | 339 kts | 316° |
| 2026-05-04 16:08 | 50.02292 | 8.05029 | 11896 ft | 384 kts | 317° |
| 2026-05-04 16:09 | 50.06440 | 7.99496 | 13021 ft | 395 kts | 317° |
| 2026-05-04 16:09 | 50.10606 | 7.93910 | 14328 ft | 401 kts | 317° |
| 2026-05-04 16:10 | 50.14846 | 7.88204 | 15525 ft | 407 kts | 316° |
| 2026-05-04 16:11 | 50.21301 | 7.79475 | 17226 ft | 415 kts | 316° |
| 2026-05-04 16:11 | 50.23541 | 7.76523 | 17750 ft | 419 kts | 320° |
| 2026-05-04 16:12 | 50.31263 | 7.69744 | 19263 ft | 434 kts | 334° |
| 2026-05-04 16:12 | 50.39675 | 7.64079 | 20719 ft | 443 kts | 334° |
| 2026-05-04 16:13 | 50.45329 | 7.60196 | 21648 ft | 449 kts | 334° |
| 2026-05-04 16:13 | 50.51091 | 7.56218 | 22559 ft | 454 kts | 334° |
| 2026-05-04 16:14 | 50.56730 | 7.51846 | 23433 ft | 457 kts | 328° |
| 2026-05-04 16:14 | 50.62162 | 7.46523 | 24265 ft | 461 kts | 323° |
| 2026-05-04 16:15 | 50.70264 | 7.38150 | 25487 ft | 470 kts | 323° |
| 2026-05-04 16:16 | 50.74999 | 7.31320 | 26259 ft | 464 kts | 303° |
| 2026-05-04 16:16 | 50.79681 | 7.18052 | 27401 ft | 465 kts | 292° |
| 2026-05-04 16:17 | 50.82595 | 7.08925 | 28298 ft | 466 kts | 292° |
| 2026-05-04 16:18 | 50.86975 | 6.95353 | 29928 ft | 459 kts | 292° |
| 2026-05-04 16:18 | 50.88410 | 6.90903 | 30428 ft | 458 kts | 292° |
| 2026-05-04 16:19 | 50.92706 | 6.77516 | 31834 ft | 453 kts | 292° |
| 2026-05-04 16:19 | 50.95516 | 6.68713 | 32653 ft | 451 kts | 291° |
| 2026-05-04 16:20 | 50.99732 | 6.55451 | 33793 ft | 448 kts | 291° |
| 2026-05-04 16:20 | 51.02515 | 6.46664 | 34450 ft | 447 kts | 291° |
| 2026-05-04 16:21 | 51.06696 | 6.33391 | 35095 ft | 451 kts | 291° |
| 2026-05-04 16:22 | 51.09488 | 6.24498 | 35455 ft | 453 kts | 291° |
| 2026-05-04 16:22 | 51.13463 | 6.10859 | 35840 ft | 453 kts | 285° |
| 2026-05-04 16:23 | 51.16190 | 5.96621 | 35941 ft | 451 kts | 279° |
| 2026-05-04 16:25 | 51.21075 | 5.67596 | 35926 ft | 454 kts | 281° |
| 2026-05-04 16:26 | 51.26943 | 5.33736 | 35924 ft | 455 kts | 280° |
| 2026-05-04 16:28 | 51.31083 | 5.09378 | 35919 ft | 457 kts | 281° |
| 2026-05-04 16:29 | 51.36785 | 4.75263 | 35922 ft | 457 kts | 281° |
| 2026-05-04 16:31 | 51.40806 | 4.50803 | 35926 ft | 458 kts | 281° |
| 2026-05-04 16:32 | 51.45560 | 4.21405 | 35929 ft | 457 kts | 280° |
| 2026-05-04 16:33 | 51.49172 | 4.01927 | 35928 ft | 462 kts | 288° |
| 2026-05-04 16:34 | 51.53145 | 3.87765 | 35924 ft | 464 kts | 291° |
| 2026-05-04 16:35 | 51.61259 | 3.59629 | 35933 ft | 464 kts | 291° |
| 2026-05-04 16:36 | 51.65276 | 3.45532 | 35935 ft | 463 kts | 291° |
| 2026-05-04 16:37 | 51.69255 | 3.31422 | 35937 ft | 463 kts | 288° |
| 2026-05-04 16:38 | 51.72063 | 3.11560 | 35944 ft | 454 kts | 270° |
| 2026-05-04 16:39 | 51.71463 | 2.96491 | 35957 ft | 451 kts | 259° |
| 2026-05-04 16:39 | 51.70593 | 2.86498 | 35957 ft | 451 kts | 259° |
| 2026-05-04 16:40 | 51.68842 | 2.66539 | 35960 ft | 452 kts | 260° |
| 2026-05-04 16:41 | 51.66584 | 2.41541 | 35965 ft | 453 kts | 259° |
| 2026-05-04 16:43 | 51.64281 | 2.16705 | 35970 ft | 454 kts | 259° |
| 2026-05-04 16:43 | 51.62884 | 2.01711 | 35966 ft | 455 kts | 259° |
| 2026-05-04 16:45 | 51.60060 | 1.71609 | 35971 ft | 456 kts | 259° |
| 2026-05-04 16:46 | 51.57584 | 1.46494 | 35972 ft | 457 kts | 259° |
| 2026-05-04 16:47 | 51.55529 | 1.26434 | 35970 ft | 457 kts | 259° |
| 2026-05-04 16:48 | 51.54767 | 1.06197 | 35973 ft | 461 kts | 270° |
| 2026-05-04 16:49 | 51.55967 | 0.85624 | 35889 ft | 463 kts | 274° |
| 2026-05-04 16:50 | 51.57245 | 0.65153 | 35958 ft | 464 kts | 274° |
| 2026-05-04 16:51 | 51.58179 | 0.49726 | 36187 ft | 463 kts | 274° |
| 2026-05-04 16:51 | 51.58787 | 0.39475 | 35893 ft | 464 kts | 274° |
| 2026-05-04 16:52 | 51.59390 | 0.29165 | 35950 ft | 465 kts | 273° |
| 2026-05-04 16:53 | 51.60278 | 0.13681 | 35972 ft | 466 kts | 273° |
| 2026-05-04 16:54 | 51.61432 | -0.06969 | 35947 ft | 466 kts | 273° |
| 2026-05-04 16:55 | 51.62662 | -0.27690 | 36240 ft | 467 kts | 274° |
| 2026-05-04 16:55 | 51.63299 | -0.38066 | 36044 ft | 465 kts | 274° |
| 2026-05-04 16:56 | 51.64828 | -0.63921 | 35988 ft | 467 kts | 274° |
| 2026-05-04 16:57 | 51.65718 | -0.79466 | 35990 ft | 468 kts | 274° |
| 2026-05-04 16:58 | 51.66878 | -1.00280 | 35987 ft | 468 kts | 274° |
| 2026-05-04 17:00 | 51.68553 | -1.31610 | 35992 ft | 470 kts | 274° |
| 2026-05-04 17:01 | 51.69890 | -1.57780 | 35993 ft | 472 kts | 274° |
| 2026-05-04 17:02 | 51.71155 | -1.78767 | 35994 ft | 472 kts | 276° |
| 2026-05-04 17:03 | 51.72290 | -1.94459 | 35995 ft | 473 kts | 276° |
| 2026-05-04 17:03 | 51.73401 | -2.10263 | 35991 ft | 474 kts | 276° |
| 2026-05-04 17:04 | 51.74849 | -2.31324 | 35990 ft | 474 kts | 276° |
| 2026-05-04 17:05 | 51.76265 | -2.52462 | 35993 ft | 476 kts | 276° |
| 2026-05-04 17:06 | 51.77301 | -2.68319 | 35995 ft | 476 kts | 275° |
| 2026-05-04 17:07 | 51.78207 | -2.82454 | 35998 ft | 477 kts | 275° |
| 2026-05-04 17:07 | 51.78986 | -2.94831 | 35993 ft | 478 kts | 276° |
| 2026-05-04 17:08 | 51.79972 | -3.10773 | 35997 ft | 478 kts | 276° |
| 2026-05-04 17:09 | 51.80616 | -3.21432 | 35997 ft | 479 kts | 276° |
| 2026-05-04 17:09 | 51.81252 | -3.32101 | 35996 ft | 479 kts | 276° |
| 2026-05-04 17:10 | 51.83136 | -3.58719 | 35989 ft | 480 kts | 282° |
| 2026-05-04 17:11 | 51.84495 | -3.69288 | 35981 ft | 481 kts | 282° |
| 2026-05-04 17:12 | 51.86547 | -3.85120 | 36000 ft | 481 kts | 282° |
| 2026-05-04 17:12 | 51.87895 | -3.95687 | 35874 ft | 482 kts | 282° |
| 2026-05-04 17:13 | 51.89900 | -4.11566 | 35970 ft | 482 kts | 282° |
| 2026-05-04 17:14 | 51.92546 | -4.32819 | 36000 ft | 484 kts | 283° |
| 2026-05-04 17:15 | 51.94512 | -4.48823 | 35999 ft | 485 kts | 283° |
| 2026-05-04 17:16 | 51.97094 | -4.70156 | 36004 ft | 485 kts | 282° |
| 2026-05-04 17:17 | 51.99656 | -4.91646 | 36020 ft | 486 kts | 282° |
| 2026-05-04 17:18 | 52.02170 | -5.13102 | 36016 ft | 487 kts | 282° |
| 2026-05-04 17:19 | 52.05840 | -5.34155 | 36042 ft | 485 kts | 291° |
| 2026-05-04 17:20 | 52.10034 | -5.54897 | 36080 ft | 486 kts | 291° |
| 2026-05-04 17:20 | 52.13150 | -5.70537 | 36053 ft | 486 kts | 290° |
| 2026-05-04 17:21 | 52.17287 | -5.91431 | 36059 ft | 485 kts | 291° |
| 2026-05-04 17:22 | 52.19357 | -6.01799 | 36046 ft | 486 kts | 291° |
| 2026-05-04 17:23 | 52.23457 | -6.22659 | 36065 ft | 486 kts | 289° |
| 2026-05-04 17:24 | 52.25695 | -6.38803 | 36061 ft | 487 kts | 284° |
| 2026-05-04 17:25 | 52.28336 | -6.60365 | 36055 ft | 487 kts | 285° |
| 2026-05-04 17:26 | 52.30951 | -6.81901 | 36074 ft | 486 kts | 284° |
| 2026-05-04 17:27 | 52.34175 | -7.08907 | 36066 ft | 485 kts | 284° |
| 2026-05-04 17:28 | 52.36699 | -7.30435 | 36066 ft | 483 kts | 284° |
| 2026-05-04 17:29 | 52.40399 | -7.62672 | 36062 ft | 483 kts | 284° |
| 2026-05-04 17:31 | 52.43415 | -7.89587 | 36062 ft | 481 kts | 283° |
| 2026-05-04 17:32 | 52.46351 | -8.16351 | 36056 ft | 480 kts | 283° |
| 2026-05-04 17:33 | 52.48661 | -8.37841 | 36064 ft | 479 kts | 283° |
| 2026-05-04 17:34 | 52.50919 | -8.59218 | 36069 ft | 477 kts | 283° |
| 2026-05-04 17:35 | 52.53681 | -8.85917 | 36072 ft | 476 kts | 282° |
| 2026-05-04 17:36 | 52.54764 | -8.96566 | 36075 ft | 476 kts | 283° |
| 2026-05-04 17:36 | 52.55848 | -9.07302 | 36079 ft | 475 kts | 282° |
| 2026-05-04 17:37 | 52.56912 | -9.17960 | 36078 ft | 475 kts | 282° |
| 2026-05-04 17:37 | 52.57966 | -9.28609 | 36081 ft | 474 kts | 282° |
| 2026-05-04 17:38 | 52.59005 | -9.39222 | 36083 ft | 474 kts | 282° |
| 2026-05-04 17:38 | 52.60040 | -9.49874 | 36083 ft | 473 kts | 282° |
| 2026-05-04 17:39 | 52.61568 | -9.65834 | 36087 ft | 472 kts | 281° |
| 2026-05-04 17:39 | 52.62571 | -9.76407 | 36091 ft | 472 kts | 281° |
| 2026-05-04 17:40 | 52.63571 | -9.87071 | 36093 ft | 471 kts | 281° |
| 2026-05-04 17:40 | 52.64557 | -9.97685 | 36098 ft | 471 kts | 281° |
| 2026-05-04 17:41 | 52.65530 | -10.08279 | 36100 ft | 470 kts | 281° |
| 2026-05-04 17:41 | 52.66491 | -10.18834 | 36102 ft | 469 kts | 281° |
| 2026-05-04 17:42 | 52.67442 | -10.29413 | 36104 ft | 468 kts | 281° |
| 2026-05-04 17:42 | 52.68386 | -10.39992 | 36103 ft | 468 kts | 281° |
| 2026-05-04 17:43 | 52.69319 | -10.50575 | 36106 ft | 468 kts | 281° |
| 2026-05-04 17:43 | 52.70241 | -10.61146 | 36110 ft | 467 kts | 281° |
| 2026-05-04 17:44 | 52.71151 | -10.71673 | 36113 ft | 467 kts | 280° |
| 2026-05-04 17:44 | 52.72048 | -10.82186 | 36113 ft | 466 kts | 280° |
| 2026-05-04 17:45 | 52.72943 | -10.92792 | 36111 ft | 466 kts | 280° |
| 2026-05-04 17:45 | 52.73824 | -11.03318 | 36120 ft | 465 kts | 280° |
| 2026-05-04 17:46 | 52.74689 | -11.13795 | 36119 ft | 465 kts | 280° |
| 2026-05-04 17:46 | 52.75547 | -11.24298 | 36116 ft | 464 kts | 280° |
| 2026-05-04 17:47 | 52.76400 | -11.34849 | 36117 ft | 463 kts | 279° |
| 2026-05-04 17:47 | 52.77238 | -11.45343 | 36119 ft | 463 kts | 279° |
| 2026-05-04 17:48 | 52.78066 | -11.55827 | 36121 ft | 461 kts | 279° |
| 2026-05-04 17:48 | 52.78883 | -11.66289 | 36119 ft | 461 kts | 279° |
| 2026-05-04 17:49 | 52.79688 | -11.76716 | 36119 ft | 461 kts | 278° |
| 2026-05-04 17:49 | 52.80487 | -11.87176 | 36121 ft | 460 kts | 278° |
| 2026-05-04 17:50 | 52.81271 | -11.97595 | 36122 ft | 459 kts | 278° |
| 2026-05-04 17:50 | 52.82046 | -12.08021 | 36118 ft | 458 kts | 278° |
| 2026-05-04 17:51 | 52.82809 | -12.18388 | 36119 ft | 457 kts | 278° |
| 2026-05-04 17:51 | 52.83565 | -12.28779 | 36122 ft | 457 kts | 278° |
| 2026-05-04 17:52 | 52.84312 | -12.39185 | 36126 ft | 457 kts | 278° |
| 2026-05-04 17:52 | 52.85051 | -12.49624 | 36128 ft | 457 kts | 278° |
| 2026-05-04 17:53 | 52.85778 | -12.60024 | 36132 ft | 457 kts | 278° |
| 2026-05-04 17:53 | 52.86494 | -12.70394 | 36128 ft | 456 kts | 278° |
| 2026-05-04 17:54 | 52.87203 | -12.80785 | 36129 ft | 456 kts | 278° |
| 2026-05-04 17:54 | 52.87902 | -12.91168 | 36137 ft | 455 kts | 277° |
| 2026-05-04 17:55 | 52.88591 | -13.01526 | 36139 ft | 455 kts | 277° |
| 2026-05-04 17:55 | 52.89265 | -13.11842 | 36139 ft | 455 kts | 277° |
| 2026-05-04 17:56 | 52.89935 | -13.22222 | 36141 ft | 454 kts | 277° |
| 2026-05-04 17:56 | 52.90592 | -13.32531 | 36143 ft | 453 kts | 277° |
| 2026-05-04 17:57 | 52.91241 | -13.42855 | 36145 ft | 452 kts | 277° |
| 2026-05-04 17:57 | 52.91885 | -13.53231 | 36148 ft | 452 kts | 277° |
| 2026-05-04 17:58 | 52.92512 | -13.63489 | 36152 ft | 452 kts | 277° |
| 2026-05-04 17:58 | 52.93134 | -13.73830 | 36149 ft | 452 kts | 276° |
| 2026-05-04 17:59 | 52.93747 | -13.84173 | 36150 ft | 452 kts | 276° |
| 2026-05-04 18:00 | 52.94647 | -13.99657 | 36159 ft | 451 kts | 276° |
| 2026-05-04 18:00 | 52.95233 | -14.09932 | 36164 ft | 450 kts | 276° |
| 2026-05-04 18:01 | 52.95813 | -14.20217 | 36166 ft | 450 kts | 276° |
| 2026-05-04 18:01 | 52.96381 | -14.30464 | 36166 ft | 449 kts | 276° |
| 2026-05-04 18:02 | 52.97216 | -14.45874 | 36167 ft | 449 kts | 276° |
| 2026-05-04 18:02 | 52.97763 | -14.56139 | 36173 ft | 447 kts | 276° |
| 2026-05-04 18:03 | 52.98299 | -14.66355 | 36179 ft | 446 kts | 275° |
| 2026-05-04 18:03 | 52.98824 | -14.76577 | 36183 ft | 445 kts | 275° |
| 2026-05-04 18:04 | 52.99338 | -14.86717 | 36182 ft | 444 kts | 276° |
| 2026-05-04 18:05 | 53.00835 | -15.01774 | 36184 ft | 443 kts | 283° |
| 2026-05-04 18:05 | 53.02579 | -15.11563 | 36175 ft | 443 kts | 289° |
| 2026-05-04 18:06 | 53.05769 | -15.25910 | 36184 ft | 444 kts | 290° |
| 2026-05-04 18:06 | 53.07908 | -15.35496 | 36182 ft | 444 kts | 290° |
| 2026-05-04 18:07 | 53.10042 | -15.45124 | 36177 ft | 445 kts | 290° |
| 2026-05-04 18:07 | 53.12172 | -15.54765 | 36183 ft | 445 kts | 290° |
| 2026-05-04 18:08 | 53.14279 | -15.64348 | 36180 ft | 445 kts | 290° |
| 2026-05-04 18:08 | 53.16401 | -15.74051 | 36180 ft | 446 kts | 290° |
| 2026-05-04 18:09 | 53.20604 | -15.93405 | 36188 ft | 447 kts | 290° |
| 2026-05-04 18:10 | 53.22708 | -16.03165 | 36192 ft | 447 kts | 290° |
| 2026-05-04 18:10 | 53.24796 | -16.12895 | 36193 ft | 446 kts | 290° |
| 2026-05-04 18:11 | 53.26862 | -16.22565 | 36200 ft | 446 kts | 290° |
| 2026-05-04 18:11 | 53.28932 | -16.32299 | 36197 ft | 446 kts | 290° |
| 2026-05-04 18:12 | 53.30993 | -16.42044 | 36195 ft | 446 kts | 290° |
| 2026-05-04 18:12 | 53.33051 | -16.51826 | 36201 ft | 446 kts | 290° |
| 2026-05-04 18:13 | 53.35090 | -16.61562 | 36200 ft | 447 kts | 290° |
| 2026-05-04 18:14 | 53.38143 | -16.76218 | 36205 ft | 447 kts | 289° |
| 2026-05-04 18:14 | 53.40178 | -16.86050 | 36207 ft | 447 kts | 289° |
| 2026-05-04 18:15 | 53.44203 | -17.05642 | 36211 ft | 447 kts | 290° |
| 2026-05-04 18:16 | 53.46198 | -17.15423 | 36215 ft | 447 kts | 290° |
| 2026-05-04 18:16 | 53.48195 | -17.25263 | 36214 ft | 447 kts | 290° |
| 2026-05-04 18:17 | 53.51167 | -17.40005 | 36218 ft | 447 kts | 290° |
| 2026-05-04 18:18 | 53.54127 | -17.54799 | 36228 ft | 447 kts | 290° |
| 2026-05-04 18:18 | 53.56089 | -17.64660 | 36228 ft | 447 kts | 289° |
| 2026-05-04 18:19 | 53.59018 | -17.79480 | 36239 ft | 447 kts | 289° |
| 2026-05-04 18:19 | 53.60963 | -17.89386 | 36240 ft | 447 kts | 289° |
| 2026-05-04 18:20 | 53.62900 | -17.99305 | 36245 ft | 447 kts | 289° |
| 2026-05-04 18:20 | 53.64814 | -18.09150 | 36240 ft | 447 kts | 289° |
| 2026-05-04 18:21 | 53.66743 | -18.19129 | 36243 ft | 447 kts | 289° |
| 2026-05-04 18:21 | 53.68646 | -18.29019 | 36246 ft | 447 kts | 289° |
| 2026-05-04 18:22 | 53.70551 | -18.38974 | 36248 ft | 447 kts | 289° |
| 2026-05-04 18:22 | 53.72448 | -18.48942 | 36248 ft | 447 kts | 288° |
| 2026-05-04 18:23 | 53.74324 | -18.58845 | 36251 ft | 447 kts | 288° |
| 2026-05-04 18:23 | 53.76210 | -18.68862 | 36256 ft | 447 kts | 288° |
| 2026-05-04 18:24 | 53.78080 | -18.78846 | 36254 ft | 448 kts | 288° |
| 2026-05-04 18:24 | 53.79942 | -18.88835 | 36260 ft | 447 kts | 288° |
| 2026-05-04 18:25 | 53.81784 | -18.98773 | 36261 ft | 447 kts | 288° |
| 2026-05-04 18:25 | 53.83630 | -19.08786 | 36257 ft | 446 kts | 288° |
| 2026-05-04 18:26 | 53.85460 | -19.18766 | 36249 ft | 446 kts | 288° |
| 2026-05-04 18:26 | 53.87288 | -19.28784 | 36246 ft | 446 kts | 288° |
| 2026-05-04 18:27 | 53.89098 | -19.38762 | 36248 ft | 447 kts | 288° |
| 2026-05-04 18:27 | 53.90914 | -19.48831 | 36250 ft | 447 kts | 288° |
| 2026-05-04 18:28 | 53.92716 | -19.58874 | 36252 ft | 446 kts | 288° |
| 2026-05-04 18:28 | 53.94507 | -19.68910 | 36255 ft | 446 kts | 287° |
| 2026-05-04 18:29 | 53.96279 | -19.78890 | 36253 ft | 445 kts | 287° |
| 2026-05-04 18:29 | 53.98053 | -19.88939 | 36257 ft | 445 kts | 287° |
| 2026-05-04 18:30 | 54.00586 | -20.04093 | 36268 ft | 445 kts | 284° |
| 2026-05-04 18:31 | 54.02044 | -20.14234 | 36272 ft | 445 kts | 284° |
| 2026-05-04 18:31 | 54.03495 | -20.24431 | 36275 ft | 444 kts | 284° |
| 2026-05-04 18:32 | 54.04927 | -20.34545 | 36275 ft | 444 kts | 284° |
| 2026-05-04 18:32 | 54.06358 | -20.44704 | 36291 ft | 443 kts | 284° |
| 2026-05-04 18:33 | 54.07783 | -20.54891 | 36289 ft | 443 kts | 284° |
| 2026-05-04 18:33 | 54.09199 | -20.65072 | 36291 ft | 442 kts | 284° |
| 2026-05-04 18:34 | 54.10596 | -20.75191 | 36295 ft | 442 kts | 284° |
| 2026-05-04 18:34 | 54.11986 | -20.85329 | 36309 ft | 442 kts | 284° |
| 2026-05-04 18:35 | 54.13372 | -20.95498 | 36295 ft | 441 kts | 284° |
| 2026-05-04 18:35 | 54.14744 | -21.05633 | 36295 ft | 441 kts | 284° |
| 2026-05-04 18:36 | 54.16110 | -21.15789 | 36290 ft | 441 kts | 284° |
| 2026-05-04 18:36 | 54.17464 | -21.25932 | 36291 ft | 441 kts | 284° |
| 2026-05-04 18:37 | 54.18812 | -21.36103 | 36284 ft | 440 kts | 284° |
| 2026-05-04 18:37 | 54.20147 | -21.46250 | 36282 ft | 441 kts | 284° |
| 2026-05-04 18:38 | 54.21476 | -21.56416 | 36287 ft | 441 kts | 284° |
| 2026-05-04 18:38 | 54.22798 | -21.66605 | 36285 ft | 441 kts | 283° |
| 2026-05-04 18:39 | 54.24110 | -21.76796 | 36282 ft | 442 kts | 283° |
| 2026-05-04 18:39 | 54.25422 | -21.87055 | 36288 ft | 441 kts | 283° |
| 2026-05-04 18:40 | 54.26709 | -21.97197 | 36293 ft | 441 kts | 283° |
| 2026-05-04 18:40 | 54.28003 | -22.07449 | 36292 ft | 441 kts | 283° |
| 2026-05-04 18:41 | 54.29279 | -22.17653 | 36294 ft | 442 kts | 283° |
| 2026-05-04 18:41 | 54.30549 | -22.27877 | 36292 ft | 442 kts | 283° |
| 2026-05-04 18:42 | 54.31813 | -22.38129 | 36288 ft | 442 kts | 283° |
| 2026-05-04 18:42 | 54.33070 | -22.48399 | 36291 ft | 442 kts | 283° |
| 2026-05-04 18:43 | 54.34309 | -22.58608 | 36294 ft | 442 kts | 283° |
| 2026-05-04 18:43 | 54.35549 | -22.68910 | 36292 ft | 442 kts | 282° |
| 2026-05-04 18:44 | 54.36775 | -22.79146 | 36287 ft | 442 kts | 282° |
| 2026-05-04 18:44 | 54.37996 | -22.89432 | 36289 ft | 442 kts | 282° |
| 2026-05-04 18:45 | 54.39207 | -22.99724 | 36303 ft | 442 kts | 282° |
| 2026-05-04 18:45 | 54.40412 | -23.10046 | 36300 ft | 442 kts | 282° |
| 2026-05-04 18:46 | 54.41600 | -23.20291 | 36293 ft | 442 kts | 282° |
| 2026-05-04 18:46 | 54.42790 | -23.30636 | 36300 ft | 442 kts | 282° |
| 2026-05-04 18:47 | 54.43962 | -23.40915 | 36301 ft | 442 kts | 282° |
| 2026-05-04 18:47 | 54.45136 | -23.51280 | 36302 ft | 442 kts | 281° |
| 2026-05-04 18:48 | 54.46290 | -23.61566 | 36305 ft | 442 kts | 281° |
| 2026-05-04 18:48 | 54.47443 | -23.71924 | 36303 ft | 442 kts | 281° |
| 2026-05-04 18:49 | 54.48582 | -23.82241 | 36303 ft | 442 kts | 281° |
| 2026-05-04 18:49 | 54.49714 | -23.92579 | 36305 ft | 442 kts | 281° |
| 2026-05-04 18:50 | 54.50837 | -24.02915 | 36311 ft | 442 kts | 281° |
| 2026-05-04 18:50 | 54.51952 | -24.13273 | 36307 ft | 443 kts | 280° |
| 2026-05-04 18:51 | 54.53060 | -24.23657 | 36305 ft | 443 kts | 280° |
| 2026-05-04 18:51 | 54.54158 | -24.34040 | 36305 ft | 443 kts | 280° |
| 2026-05-04 18:52 | 54.55245 | -24.44403 | 36307 ft | 442 kts | 280° |
| 2026-05-04 18:52 | 54.56323 | -24.54763 | 36306 ft | 442 kts | 280° |
| 2026-05-04 18:53 | 54.57392 | -24.65126 | 36300 ft | 442 kts | 279° |
| 2026-05-04 18:53 | 54.58458 | -24.75565 | 36304 ft | 442 kts | 279° |
| 2026-05-04 18:54 | 54.59510 | -24.85944 | 36300 ft | 442 kts | 279° |
| 2026-05-04 18:54 | 54.60552 | -24.96320 | 36305 ft | 442 kts | 279° |
| 2026-05-04 18:55 | 54.61590 | -25.06764 | 36295 ft | 443 kts | 279° |
| 2026-05-04 18:55 | 54.63126 | -25.22380 | 36299 ft | 443 kts | 279° |
| 2026-05-04 18:56 | 54.64142 | -25.32825 | 36305 ft | 443 kts | 279° |
| 2026-05-04 18:56 | 54.65153 | -25.43329 | 36306 ft | 443 kts | 279° |
| 2026-05-04 18:57 | 54.66145 | -25.53735 | 36309 ft | 444 kts | 279° |
| 2026-05-04 18:57 | 54.67139 | -25.64245 | 36303 ft | 443 kts | 279° |
| 2026-05-04 18:58 | 54.68119 | -25.74726 | 36307 ft | 443 kts | 279° |
| 2026-05-04 18:58 | 54.69084 | -25.85143 | 36307 ft | 444 kts | 279° |
| 2026-05-04 18:59 | 54.70050 | -25.95673 | 36314 ft | 444 kts | 278° |
| 2026-05-04 18:59 | 54.71002 | -26.06144 | 36321 ft | 444 kts | 278° |
| 2026-05-04 19:00 | 54.71948 | -26.16657 | 36319 ft | 444 kts | 279° |
| 2026-05-04 19:00 | 54.72880 | -26.27137 | 36320 ft | 444 kts | 278° |
| 2026-05-04 19:01 | 54.73807 | -26.37649 | 36318 ft | 444 kts | 278° |
| 2026-05-04 19:01 | 54.74730 | -26.48222 | 36318 ft | 445 kts | 279° |
| 2026-05-04 19:02 | 54.75634 | -26.58710 | 36317 ft | 445 kts | 278° |
| 2026-05-04 19:02 | 54.76538 | -26.69295 | 36319 ft | 445 kts | 278° |
| 2026-05-04 19:03 | 54.77432 | -26.79870 | 36320 ft | 446 kts | 278° |
| 2026-05-04 19:03 | 54.78315 | -26.90436 | 36323 ft | 446 kts | 278° |
| 2026-05-04 19:04 | 54.79193 | -27.01048 | 36320 ft | 446 kts | 278° |
| 2026-05-04 19:04 | 54.80056 | -27.11606 | 36653 ft | 446 kts | 278° |
| 2026-05-04 19:05 | 54.80487 | -27.16916 | 36493 ft | 445 kts | 278° |
| 2026-05-04 19:05 | 54.80913 | -27.22186 | 36396 ft | 444 kts | 278° |
| 2026-05-04 19:05 | 54.81761 | -27.32787 | 36338 ft | 443 kts | 278° |
| 2026-05-04 19:06 | 54.82589 | -27.43264 | 36315 ft | 444 kts | 278° |
| 2026-05-04 19:06 | 54.83419 | -27.53884 | 36311 ft | 444 kts | 278° |
| 2026-05-04 19:07 | 54.84234 | -27.64433 | 36317 ft | 444 kts | 278° |
| 2026-05-04 19:07 | 54.85045 | -27.75050 | 36307 ft | 445 kts | 277° |
| 2026-05-04 19:08 | 54.85844 | -27.85648 | 36307 ft | 446 kts | 277° |
| 2026-05-04 19:08 | 54.86638 | -27.96280 | 36315 ft | 446 kts | 277° |
| 2026-05-04 19:09 | 54.87421 | -28.06902 | 36320 ft | 446 kts | 277° |
| 2026-05-04 19:09 | 54.88195 | -28.17552 | 36332 ft | 446 kts | 277° |
| 2026-05-04 19:10 | 54.88957 | -28.28154 | 36326 ft | 446 kts | 278° |
| 2026-05-04 19:10 | 54.89712 | -28.38783 | 36326 ft | 446 kts | 278° |
| 2026-05-04 19:11 | 54.90458 | -28.49444 | 36335 ft | 447 kts | 278° |
| 2026-05-04 19:11 | 54.91199 | -28.60144 | 36329 ft | 448 kts | 278° |
| 2026-05-04 19:12 | 54.92289 | -28.76170 | 36323 ft | 447 kts | 277° |
| 2026-05-04 19:13 | 54.93005 | -28.86877 | 36324 ft | 448 kts | 277° |
| 2026-05-04 19:13 | 54.93716 | -28.97643 | 36330 ft | 449 kts | 277° |
| 2026-05-04 19:14 | 54.94416 | -29.08383 | 36335 ft | 449 kts | 277° |
| 2026-05-04 19:14 | 54.95102 | -29.19063 | 36337 ft | 449 kts | 277° |
| 2026-05-04 19:15 | 54.95784 | -29.29828 | 36335 ft | 449 kts | 277° |
| 2026-05-04 19:15 | 54.96455 | -29.40577 | 36336 ft | 449 kts | 277° |
| 2026-05-04 19:16 | 54.97118 | -29.51348 | 36338 ft | 449 kts | 278° |
| 2026-05-04 19:16 | 54.97772 | -29.62133 | 36334 ft | 449 kts | 278° |
| 2026-05-04 19:17 | 54.98415 | -29.72898 | 36333 ft | 449 kts | 277° |
| 2026-05-04 19:17 | 54.99049 | -29.83663 | 36335 ft | 449 kts | 277° |
| 2026-05-04 19:18 | 54.99672 | -29.94422 | 36332 ft | 450 kts | 277° |
| 2026-05-04 19:18 | 55.00239 | -30.05221 | 36344 ft | 450 kts | 276° |
| 2026-05-04 19:19 | 55.00658 | -30.15979 | 36347 ft | 450 kts | 276° |
| 2026-05-04 19:19 | 55.01069 | -30.26838 | 36351 ft | 450 kts | 276° |
| 2026-05-04 19:20 | 55.01476 | -30.37614 | 36349 ft | 450 kts | 276° |
| 2026-05-04 19:20 | 55.01881 | -30.48479 | 36352 ft | 450 kts | 276° |
| 2026-05-04 19:21 | 55.02276 | -30.59274 | 36350 ft | 450 kts | 276° |
| 2026-05-04 19:21 | 55.02665 | -30.70157 | 36349 ft | 451 kts | 275° |
| 2026-05-04 19:22 | 55.03042 | -30.81008 | 36344 ft | 451 kts | 275° |
| 2026-05-04 19:22 | 55.03411 | -30.91862 | 36343 ft | 452 kts | 275° |
| 2026-05-04 19:23 | 55.03770 | -31.02775 | 36345 ft | 452 kts | 276° |
| 2026-05-04 19:23 | 55.04120 | -31.13633 | 36349 ft | 451 kts | 276° |
| 2026-05-04 19:24 | 55.04464 | -31.24557 | 36345 ft | 451 kts | 276° |
| 2026-05-04 19:24 | 55.04792 | -31.35374 | 36347 ft | 451 kts | 275° |
| 2026-05-04 19:25 | 55.05113 | -31.46291 | 36347 ft | 451 kts | 276° |
| 2026-05-04 19:25 | 55.05422 | -31.57129 | 36350 ft | 451 kts | 276° |
| 2026-05-04 19:26 | 55.05722 | -31.67989 | 36345 ft | 451 kts | 275° |
| 2026-05-04 19:26 | 55.05871 | -31.73479 | 36118 ft | 452 kts | 275° |
| 2026-05-04 19:26 | 55.06015 | -31.78875 | 36492 ft | 453 kts | 275° |
| 2026-05-04 19:27 | 55.06298 | -31.89813 | 36383 ft | 451 kts | 275° |
| 2026-05-04 19:27 | 55.06569 | -32.00654 | 36361 ft | 451 kts | 275° |
| 2026-05-04 19:28 | 55.06831 | -32.11562 | 36091 ft | 451 kts | 275° |
| 2026-05-04 19:28 | 55.06959 | -32.16996 | 36228 ft | 452 kts | 275° |
| 2026-05-04 19:28 | 55.07085 | -32.22465 | 36499 ft | 453 kts | 275° |
| 2026-05-04 19:29 | 55.07327 | -32.33332 | 36385 ft | 451 kts | 275° |
| 2026-05-04 19:29 | 55.07559 | -32.44188 | 36354 ft | 450 kts | 275° |
| 2026-05-04 19:30 | 55.07784 | -32.55116 | 36357 ft | 451 kts | 275° |
| 2026-05-04 19:30 | 55.07996 | -32.65973 | 36347 ft | 450 kts | 275° |
| 2026-05-04 19:31 | 55.08201 | -32.76858 | 36345 ft | 450 kts | 274° |
| 2026-05-04 19:31 | 55.08394 | -32.87656 | 36358 ft | 450 kts | 275° |
| 2026-05-04 19:32 | 55.08579 | -32.98512 | 36369 ft | 450 kts | 274° |
| 2026-05-04 19:32 | 55.08753 | -33.09407 | 36365 ft | 450 kts | 274° |
| 2026-05-04 19:33 | 55.08917 | -33.20295 | 36359 ft | 449 kts | 274° |
| 2026-05-04 19:33 | 55.09071 | -33.31083 | 36357 ft | 449 kts | 275° |
| 2026-05-04 19:34 | 55.09216 | -33.41930 | 36356 ft | 448 kts | 275° |
| 2026-05-04 19:34 | 55.09352 | -33.52728 | 36356 ft | 448 kts | 275° |
| 2026-05-04 19:35 | 55.09478 | -33.63588 | 36347 ft | 448 kts | 275° |
| 2026-05-04 19:35 | 55.09594 | -33.74426 | 36347 ft | 448 kts | 274° |
| 2026-05-04 19:36 | 55.09700 | -33.85210 | 36336 ft | 448 kts | 274° |
| 2026-05-04 19:36 | 55.09798 | -33.96057 | 36330 ft | 448 kts | 274° |
| 2026-05-04 19:37 | 55.09885 | -34.06897 | 36339 ft | 448 kts | 274° |
| 2026-05-04 19:37 | 55.09962 | -34.17670 | 36340 ft | 447 kts | 274° |
| 2026-05-04 19:37 | 55.09996 | -34.23066 | 36091 ft | 447 kts | 274° |
| 2026-05-04 19:38 | 55.10029 | -34.28508 | 36240 ft | 447 kts | 274° |
| 2026-05-04 19:38 | 55.10088 | -34.39302 | 36320 ft | 448 kts | 274° |
| 2026-05-04 19:39 | 55.10137 | -34.50110 | 36334 ft | 448 kts | 274° |
| 2026-05-04 19:39 | 55.10177 | -34.60950 | 36332 ft | 447 kts | 274° |
| 2026-05-04 19:40 | 55.10206 | -34.71780 | 36330 ft | 447 kts | 274° |
| 2026-05-04 19:40 | 55.10226 | -34.82597 | 36331 ft | 447 kts | 274° |
| 2026-05-04 19:41 | 55.10237 | -34.93385 | 36335 ft | 446 kts | 274° |
| 2026-05-04 19:41 | 55.10238 | -35.04138 | 36342 ft | 446 kts | 274° |
| 2026-05-04 19:42 | 55.10229 | -35.14884 | 36342 ft | 446 kts | 274° |
| 2026-05-04 19:42 | 55.10211 | -35.25702 | 36343 ft | 446 kts | 274° |
| 2026-05-04 19:43 | 55.10183 | -35.36455 | 36344 ft | 444 kts | 274° |
| 2026-05-04 19:43 | 55.10148 | -35.47132 | 36333 ft | 444 kts | 274° |
| 2026-05-04 19:44 | 55.10101 | -35.57848 | 36328 ft | 442 kts | 274° |
| 2026-05-04 19:44 | 55.10045 | -35.68544 | 36327 ft | 443 kts | 274° |
| 2026-05-04 19:45 | 55.09980 | -35.79235 | 36328 ft | 442 kts | 274° |
| 2026-05-04 19:45 | 55.09907 | -35.89881 | 36316 ft | 442 kts | 274° |
| 2026-05-04 19:46 | 55.09824 | -36.00587 | 36315 ft | 442 kts | 274° |
| 2026-05-04 19:46 | 55.09731 | -36.11304 | 36334 ft | 441 kts | 274° |
| 2026-05-04 19:47 | 55.09629 | -36.21920 | 36337 ft | 439 kts | 274° |
| 2026-05-04 19:47 | 55.09518 | -36.32474 | 36339 ft | 438 kts | 274° |
| 2026-05-04 19:48 | 55.09399 | -36.43017 | 36316 ft | 437 kts | 275° |
| 2026-05-04 19:48 | 55.09272 | -36.53567 | 36293 ft | 436 kts | 274° |
| 2026-05-04 19:49 | 55.09135 | -36.64066 | 36298 ft | 434 kts | 274° |
| 2026-05-04 19:49 | 55.08988 | -36.74586 | 36298 ft | 434 kts | 274° |
| 2026-05-04 19:50 | 55.08836 | -36.85036 | 36298 ft | 435 kts | 274° |
| 2026-05-04 19:50 | 55.08671 | -36.95563 | 36299 ft | 434 kts | 274° |
| 2026-05-04 19:51 | 55.08500 | -37.06015 | 36295 ft | 434 kts | 274° |
| 2026-05-04 19:51 | 55.08320 | -37.16455 | 36289 ft | 434 kts | 274° |
| 2026-05-04 19:52 | 55.08130 | -37.26958 | 36287 ft | 433 kts | 274° |
| 2026-05-04 19:52 | 55.07933 | -37.37391 | 36285 ft | 432 kts | 274° |
| 2026-05-04 19:53 | 55.07723 | -37.47781 | 36285 ft | 432 kts | 274° |
| 2026-05-04 19:53 | 55.07509 | -37.58198 | 36287 ft | 431 kts | 273° |
| 2026-05-04 19:54 | 55.07285 | -37.68596 | 36288 ft | 431 kts | 272° |
| 2026-05-04 19:54 | 55.07052 | -37.78993 | 36286 ft | 430 kts | 272° |
| 2026-05-04 19:55 | 55.06810 | -37.89358 | 36282 ft | 430 kts | 272° |
| 2026-05-04 19:55 | 55.06558 | -37.99754 | 36292 ft | 430 kts | 272° |
| 2026-05-04 19:56 | 55.06302 | -38.10090 | 36286 ft | 429 kts | 272° |
| 2026-05-04 19:56 | 55.06032 | -38.20426 | 36284 ft | 428 kts | 272° |
| 2026-05-04 19:57 | 55.05756 | -38.30756 | 36273 ft | 428 kts | 272° |
| 2026-05-04 19:57 | 55.05471 | -38.41108 | 36274 ft | 428 kts | 272° |
| 2026-05-04 19:58 | 55.05179 | -38.51390 | 36270 ft | 427 kts | 272° |
| 2026-05-04 19:58 | 55.04876 | -38.61712 | 36266 ft | 427 kts | 272° |
| 2026-05-04 19:59 | 55.04567 | -38.71966 | 36265 ft | 426 kts | 271° |
| 2026-05-04 19:59 | 55.04250 | -38.82195 | 36257 ft | 425 kts | 271° |
| 2026-05-04 20:00 | 55.03925 | -38.92450 | 36252 ft | 423 kts | 271° |
| 2026-05-04 20:00 | 55.03593 | -39.02679 | 36252 ft | 423 kts | 271° |
| 2026-05-04 20:01 | 55.03250 | -39.12870 | 36239 ft | 425 kts | 271° |
| 2026-05-04 20:01 | 55.02898 | -39.23103 | 36223 ft | 424 kts | 271° |
| 2026-05-04 20:02 | 55.02543 | -39.33260 | 36220 ft | 424 kts | 271° |
| 2026-05-04 20:02 | 55.02172 | -39.43513 | 36216 ft | 424 kts | 271° |
| 2026-05-04 20:03 | 55.01798 | -39.53677 | 36211 ft | 424 kts | 270° |
| 2026-05-04 20:03 | 55.01416 | -39.63882 | 36203 ft | 425 kts | 270° |
| 2026-05-04 20:04 | 55.01020 | -39.74113 | 36198 ft | 424 kts | 270° |
| 2026-05-04 20:04 | 55.00623 | -39.84309 | 36196 ft | 425 kts | 269° |
| 2026-05-04 20:05 | 55.00279 | -39.92879 | 36185 ft | 425 kts | 269° |
| 2026-05-04 20:05 | 54.99746 | -40.04760 | 36180 ft | 425 kts | 268° |
| 2026-05-04 20:06 | 54.99143 | -40.14965 | 36173 ft | 425 kts | 267° |
| 2026-05-04 20:06 | 54.98530 | -40.25151 | 36169 ft | 425 kts | 267° |
| 2026-05-04 20:07 | 54.97918 | -40.35340 | 36166 ft | 425 kts | 267° |
| 2026-05-04 20:07 | 54.97300 | -40.45546 | 36491 ft | 425 kts | 267° |
| 2026-05-04 20:07 | 54.96986 | -40.50645 | 36263 ft | 424 kts | 266° |
| 2026-05-04 20:08 | 54.96679 | -40.55672 | 36191 ft | 425 kts | 266° |
| 2026-05-04 20:08 | 54.96041 | -40.65878 | 36159 ft | 426 kts | 265° |
| 2026-05-04 20:09 | 54.95404 | -40.76060 | 36151 ft | 427 kts | 265° |
| 2026-05-04 20:09 | 54.94750 | -40.86287 | 36148 ft | 428 kts | 265° |
| 2026-05-04 20:10 | 54.94088 | -40.96565 | 36143 ft | 427 kts | 265° |
| 2026-05-04 20:10 | 54.93415 | -41.06823 | 36142 ft | 429 kts | 265° |
| 2026-05-04 20:11 | 54.92739 | -41.17020 | 36135 ft | 428 kts | 265° |
| 2026-05-04 20:11 | 54.92047 | -41.27314 | 36132 ft | 431 kts | 265° |
| 2026-05-04 20:12 | 54.91347 | -41.37589 | 36126 ft | 431 kts | 264° |
| 2026-05-04 20:12 | 54.90992 | -41.42733 | 35833 ft | 431 kts | 264° |
| 2026-05-04 20:12 | 54.90634 | -41.47902 | 35960 ft | 431 kts | 264° |
| 2026-05-04 20:12 | 54.90278 | -41.53022 | 36232 ft | 431 kts | 264° |
| 2026-05-04 20:13 | 54.89915 | -41.58210 | 36157 ft | 431 kts | 264° |
| 2026-05-04 20:13 | 54.89193 | -41.68435 | 35857 ft | 431 kts | 263° |
| 2026-05-04 20:13 | 54.88820 | -41.73658 | 36016 ft | 433 kts | 263° |
| 2026-05-04 20:14 | 54.88451 | -41.78798 | 36074 ft | 432 kts | 263° |
| 2026-05-04 20:14 | 54.87704 | -41.89114 | 36101 ft | 432 kts | 263° |
| 2026-05-04 20:15 | 54.86947 | -41.99405 | 36095 ft | 432 kts | 263° |
| 2026-05-04 20:15 | 54.86185 | -42.09687 | 36089 ft | 434 kts | 263° |
| 2026-05-04 20:16 | 54.85410 | -42.19998 | 36084 ft | 434 kts | 262° |
| 2026-05-04 20:16 | 54.84627 | -42.30322 | 36080 ft | 434 kts | 262° |
| 2026-05-04 20:17 | 54.83833 | -42.40655 | 36072 ft | 433 kts | 262° |
| 2026-05-04 20:17 | 54.83035 | -42.50929 | 36062 ft | 433 kts | 262° |
| 2026-05-04 20:18 | 54.82225 | -42.61237 | 36058 ft | 434 kts | 262° |
| 2026-05-04 20:18 | 54.81399 | -42.71619 | 36051 ft | 434 kts | 261° |
| 2026-05-04 20:19 | 54.80575 | -42.81888 | 36048 ft | 434 kts | 261° |
| 2026-05-04 20:19 | 54.79735 | -42.92213 | 36039 ft | 435 kts | 261° |
| 2026-05-04 20:20 | 54.78888 | -43.02556 | 36035 ft | 435 kts | 260° |
| 2026-05-04 20:20 | 54.78027 | -43.12900 | 36029 ft | 435 kts | 260° |
| 2026-05-04 20:21 | 54.77163 | -43.23221 | 36019 ft | 436 kts | 259° |
| 2026-05-04 20:21 | 54.75847 | -43.38710 | 36000 ft | 437 kts | 259° |
| 2026-05-04 20:22 | 54.74955 | -43.49055 | 36000 ft | 437 kts | 259° |
| 2026-05-04 20:22 | 54.74052 | -43.59421 | 35986 ft | 437 kts | 259° |
| 2026-05-04 20:23 | 54.73137 | -43.69838 | 35982 ft | 438 kts | 258° |
| 2026-05-04 20:23 | 54.72216 | -43.80217 | 35971 ft | 439 kts | 258° |
| 2026-05-04 20:24 | 54.71288 | -43.90575 | 35965 ft | 438 kts | 258° |
| 2026-05-04 20:24 | 54.70351 | -44.00916 | 35950 ft | 439 kts | 258° |
| 2026-05-04 20:25 | 54.69399 | -44.11314 | 35946 ft | 441 kts | 258° |
| 2026-05-04 20:25 | 54.68446 | -44.21655 | 35939 ft | 440 kts | 258° |
| 2026-05-04 20:26 | 54.67470 | -44.32123 | 35928 ft | 442 kts | 257° |
| 2026-05-04 20:26 | 54.66485 | -44.42577 | 35918 ft | 442 kts | 257° |
| 2026-05-04 20:27 | 54.65492 | -44.53021 | 35909 ft | 444 kts | 257° |
| 2026-05-04 20:27 | 54.64482 | -44.63537 | 35897 ft | 445 kts | 257° |
| 2026-05-04 20:28 | 54.63466 | -44.74018 | 35901 ft | 446 kts | 256° |
| 2026-05-04 20:28 | 54.62437 | -44.84536 | 35882 ft | 446 kts | 256° |
| 2026-05-04 20:29 | 54.61401 | -44.95026 | 35886 ft | 446 kts | 256° |
| 2026-05-04 20:29 | 54.60352 | -45.05551 | 35873 ft | 447 kts | 256° |
| 2026-05-04 20:30 | 54.59295 | -45.16060 | 35868 ft | 448 kts | 255° |
| 2026-05-04 20:30 | 54.58221 | -45.26666 | 35850 ft | 450 kts | 255° |
| 2026-05-04 20:31 | 54.57140 | -45.37197 | 35845 ft | 450 kts | 255° |
| 2026-05-04 20:31 | 54.56051 | -45.47749 | 35835 ft | 452 kts | 255° |
| 2026-05-04 20:32 | 54.54946 | -45.58340 | 35833 ft | 453 kts | 255° |
| 2026-05-04 20:32 | 54.53823 | -45.69014 | 35819 ft | 454 kts | 253° |
| 2026-05-04 20:33 | 54.52692 | -45.79658 | 35810 ft | 455 kts | 254° |
| 2026-05-04 20:33 | 54.51553 | -45.90291 | 35811 ft | 457 kts | 254° |
| 2026-05-04 20:34 | 54.50396 | -46.01013 | 35810 ft | 457 kts | 253° |
| 2026-05-04 20:34 | 54.49224 | -46.11774 | 35798 ft | 458 kts | 253° |
| 2026-05-04 20:35 | 54.48048 | -46.22475 | 35782 ft | 460 kts | 253° |
| 2026-05-04 20:35 | 54.46855 | -46.33231 | 35778 ft | 461 kts | 253° |
| 2026-05-04 20:36 | 54.45643 | -46.44080 | 35773 ft | 463 kts | 253° |
| 2026-05-04 20:36 | 54.44420 | -46.54914 | 35755 ft | 465 kts | 253° |
| 2026-05-04 20:37 | 54.43189 | -46.65746 | 35740 ft | 466 kts | 252° |
| 2026-05-04 20:37 | 54.41943 | -46.76613 | 35727 ft | 468 kts | 252° |
| 2026-05-04 20:38 | 54.40677 | -46.87563 | 35729 ft | 468 kts | 252° |
| 2026-05-04 20:38 | 54.39402 | -46.98497 | 35715 ft | 469 kts | 252° |
| 2026-05-04 20:39 | 54.38123 | -47.09385 | 35712 ft | 469 kts | 252° |
| 2026-05-04 20:39 | 54.36823 | -47.20346 | 35703 ft | 471 kts | 252° |
| 2026-05-04 20:40 | 54.35509 | -47.31322 | 35700 ft | 472 kts | 252° |
| 2026-05-04 20:40 | 54.34188 | -47.42278 | 35707 ft | 472 kts | 252° |
| 2026-05-04 20:41 | 54.32860 | -47.53222 | 35690 ft | 472 kts | 251° |
| 2026-05-04 20:41 | 54.31515 | -47.64197 | 35674 ft | 472 kts | 251° |
| 2026-05-04 20:42 | 54.30169 | -47.75095 | 35663 ft | 472 kts | 250° |
| 2026-05-04 20:42 | 54.28798 | -47.86091 | 35663 ft | 473 kts | 250° |
| 2026-05-04 20:43 | 54.27434 | -47.96968 | 35655 ft | 473 kts | 250° |
| 2026-05-04 20:43 | 54.26043 | -48.07961 | 35643 ft | 475 kts | 250° |
| 2026-05-04 20:44 | 54.24645 | -48.18937 | 35640 ft | 474 kts | 250° |
| 2026-05-04 20:44 | 54.23233 | -48.29911 | 35631 ft | 475 kts | 250° |
| 2026-05-04 20:45 | 54.21806 | -48.40935 | 35620 ft | 478 kts | 250° |
| 2026-05-04 20:45 | 54.20377 | -48.51905 | 35624 ft | 477 kts | 249° |
| 2026-05-04 20:46 | 54.18922 | -48.62968 | 35608 ft | 480 kts | 250° |
| 2026-05-04 20:46 | 54.17459 | -48.73998 | 35606 ft | 479 kts | 249° |
| 2026-05-04 20:47 | 54.15985 | -48.85069 | 35604 ft | 479 kts | 249° |
| 2026-05-04 20:47 | 54.14498 | -48.96099 | 35585 ft | 482 kts | 248° |
| 2026-05-04 20:48 | 54.12993 | -49.07210 | 35583 ft | 482 kts | 248° |
| 2026-05-04 20:48 | 54.11485 | -49.18276 | 35558 ft | 483 kts | 248° |
| 2026-05-04 20:49 | 54.09960 | -49.29369 | 35566 ft | 484 kts | 248° |
| 2026-05-04 20:49 | 54.08421 | -49.40468 | 35557 ft | 484 kts | 248° |
| 2026-05-04 20:50 | 54.06865 | -49.51615 | 35557 ft | 485 kts | 248° |
| 2026-05-04 20:50 | 54.05304 | -49.62709 | 35548 ft | 487 kts | 248° |
| 2026-05-04 20:51 | 54.03720 | -49.73924 | 35545 ft | 489 kts | 247° |
| 2026-05-04 20:51 | 54.02133 | -49.85078 | 35541 ft | 488 kts | 247° |
| 2026-05-04 20:52 | 54.00487 | -49.96230 | 35529 ft | 486 kts | 244° |
| 2026-05-04 20:52 | 53.98328 | -50.06898 | 35519 ft | 478 kts | 238° |
| 2026-05-04 20:53 | 53.95772 | -50.17404 | 35501 ft | 481 kts | 238° |
| 2026-05-04 20:53 | 53.93244 | -50.27766 | 35508 ft | 481 kts | 238° |
| 2026-05-04 20:54 | 53.90684 | -50.38238 | 35501 ft | 482 kts | 238° |
| 2026-05-04 20:54 | 53.88122 | -50.48668 | 35452 ft | 483 kts | 238° |
| 2026-05-04 20:55 | 53.85535 | -50.59166 | 35466 ft | 483 kts | 238° |
| 2026-05-04 20:55 | 53.82949 | -50.69609 | 35482 ft | 483 kts | 237° |
| 2026-05-04 20:56 | 53.80345 | -50.80073 | 35423 ft | 484 kts | 237° |
| 2026-05-04 20:56 | 53.77753 | -50.90453 | 35456 ft | 484 kts | 237° |
| 2026-05-04 20:57 | 53.75126 | -51.00913 | 35432 ft | 483 kts | 238° |
| 2026-05-04 20:57 | 53.72498 | -51.11326 | 35433 ft | 485 kts | 237° |
| 2026-05-04 20:58 | 53.69865 | -51.21705 | 35433 ft | 486 kts | 237° |
| 2026-05-04 20:58 | 53.67192 | -51.32204 | 35448 ft | 486 kts | 238° |
| 2026-05-04 20:59 | 53.64533 | -51.42602 | 35720 ft | 484 kts | 238° |
| 2026-05-04 20:59 | 53.61871 | -51.52953 | 35553 ft | 485 kts | 237° |
| 2026-05-04 21:00 | 53.59199 | -51.63308 | 35461 ft | 485 kts | 238° |
| 2026-05-04 21:00 | 53.56520 | -51.73626 | 35438 ft | 485 kts | 237° |
| 2026-05-04 21:01 | 53.53808 | -51.84017 | 35416 ft | 485 kts | 237° |
| 2026-05-04 21:01 | 53.51115 | -51.94311 | 35430 ft | 484 kts | 237° |
| 2026-05-04 21:02 | 53.48405 | -52.04617 | 35426 ft | 484 kts | 237° |
| 2026-05-04 21:02 | 53.45670 | -52.14959 | 35417 ft | 485 kts | 237° |
| 2026-05-04 21:03 | 53.42932 | -52.25275 | 35406 ft | 485 kts | 237° |
| 2026-05-04 21:03 | 53.40199 | -52.35524 | 35398 ft | 484 kts | 238° |
| 2026-05-04 21:04 | 53.37461 | -52.45752 | 35410 ft | 483 kts | 238° |
| 2026-05-04 21:04 | 53.34710 | -52.55965 | 35408 ft | 486 kts | 238° |
| 2026-05-04 21:05 | 53.31926 | -52.66276 | 35405 ft | 486 kts | 237° |
| 2026-05-04 21:05 | 53.29168 | -52.76444 | 35405 ft | 483 kts | 237° |
| 2026-05-04 21:06 | 53.26384 | -52.86642 | 35387 ft | 484 kts | 237° |
| 2026-05-04 21:06 | 53.23598 | -52.96804 | 35374 ft | 486 kts | 238° |
| 2026-05-04 21:07 | 53.20780 | -53.07062 | 35379 ft | 486 kts | 238° |
| 2026-05-04 21:07 | 53.17978 | -53.17200 | 35363 ft | 486 kts | 238° |
| 2026-05-04 21:08 | 53.15144 | -53.27411 | 35343 ft | 484 kts | 238° |
| 2026-05-04 21:08 | 53.12329 | -53.37521 | 35356 ft | 484 kts | 238° |
| 2026-05-04 21:09 | 53.09501 | -53.47613 | 35319 ft | 483 kts | 239° |
| 2026-05-04 21:09 | 53.06654 | -53.57745 | 35316 ft | 484 kts | 239° |
| 2026-05-04 21:10 | 53.03819 | -53.67773 | 35318 ft | 485 kts | 238° |
| 2026-05-04 21:10 | 53.00944 | -53.77911 | 35312 ft | 485 kts | 238° |
| 2026-05-04 21:11 | 52.98064 | -53.88033 | 35316 ft | 483 kts | 238° |
| 2026-05-04 21:11 | 52.95200 | -53.98043 | 35314 ft | 483 kts | 239° |
| 2026-05-04 21:12 | 52.92310 | -54.08107 | 35316 ft | 484 kts | 238° |
| 2026-05-04 21:12 | 52.89420 | -54.18124 | 35324 ft | 484 kts | 239° |
| 2026-05-04 21:13 | 52.86512 | -54.28159 | 35317 ft | 485 kts | 239° |
| 2026-05-04 21:13 | 52.83598 | -54.38178 | 35302 ft | 485 kts | 239° |
| 2026-05-04 21:14 | 52.80686 | -54.48145 | 35280 ft | 485 kts | 239° |
| 2026-05-04 21:14 | 52.77757 | -54.58122 | 35270 ft | 485 kts | 239° |
| 2026-05-04 21:15 | 52.74809 | -54.68132 | 35264 ft | 485 kts | 238° |
| 2026-05-04 21:15 | 52.71867 | -54.78084 | 35265 ft | 485 kts | 238° |
| 2026-05-04 21:16 | 52.68923 | -54.87989 | 35264 ft | 485 kts | 239° |
| 2026-05-04 21:16 | 52.65951 | -54.97957 | 35268 ft | 485 kts | 238° |
| 2026-05-04 21:17 | 52.62994 | -55.07824 | 35264 ft | 485 kts | 239° |
| 2026-05-04 21:17 | 52.60001 | -55.17773 | 35264 ft | 485 kts | 239° |
| 2026-05-04 21:18 | 52.57025 | -55.27626 | 35258 ft | 484 kts | 239° |
| 2026-05-04 21:18 | 52.54032 | -55.37492 | 35250 ft | 485 kts | 239° |
| 2026-05-04 21:19 | 52.51027 | -55.47364 | 35243 ft | 485 kts | 239° |
| 2026-05-04 21:19 | 52.48003 | -55.57260 | 35385 ft | 490 kts | 239° |
| 2026-05-04 21:20 | 52.46488 | -55.62199 | 35555 ft | 490 kts | 239° |
| 2026-05-04 21:20 | 52.44953 | -55.67204 | 35776 ft | 490 kts | 238° |
| 2026-05-04 21:20 | 52.43426 | -55.72171 | 35986 ft | 489 kts | 238° |
| 2026-05-04 21:20 | 52.41909 | -55.77085 | 36169 ft | 488 kts | 238° |
| 2026-05-04 21:21 | 52.40371 | -55.82044 | 36337 ft | 488 kts | 237° |
| 2026-05-04 21:21 | 52.38741 | -55.86862 | 36496 ft | 486 kts | 236° |
| 2026-05-04 21:21 | 52.37071 | -55.91625 | 36661 ft | 486 kts | 236° |
| 2026-05-04 21:21 | 52.35403 | -55.96378 | 36782 ft | 486 kts | 236° |
| 2026-05-04 21:22 | 52.33725 | -56.01163 | 36907 ft | 487 kts | 236° |
| 2026-05-04 21:22 | 52.32032 | -56.05977 | 37021 ft | 487 kts | 236° |
| 2026-05-04 21:22 | 52.30353 | -56.10743 | 37131 ft | 488 kts | 236° |
| 2026-05-04 21:22 | 52.28674 | -56.15505 | 37255 ft | 488 kts | 236° |
| 2026-05-04 21:23 | 52.26989 | -56.20268 | 37394 ft | 488 kts | 236° |
| 2026-05-04 21:23 | 52.25290 | -56.25068 | 37524 ft | 488 kts | 236° |
| 2026-05-04 21:23 | 52.23603 | -56.29823 | 37652 ft | 487 kts | 236° |
| 2026-05-04 21:23 | 52.21903 | -56.34606 | 37796 ft | 487 kts | 236° |
| 2026-05-04 21:24 | 52.20208 | -56.39367 | 37951 ft | 486 kts | 236° |
| 2026-05-04 21:24 | 52.18527 | -56.44084 | 38087 ft | 485 kts | 236° |
| 2026-05-04 21:24 | 52.16844 | -56.48795 | 38222 ft | 484 kts | 236° |
| 2026-05-04 21:24 | 52.15153 | -56.53521 | 38333 ft | 484 kts | 236° |
| 2026-05-04 21:25 | 52.11783 | -56.62908 | 38534 ft | 484 kts | 237° |
| 2026-05-04 21:25 | 52.10080 | -56.67643 | 38637 ft | 484 kts | 236° |
| 2026-05-04 21:25 | 52.08384 | -56.72346 | 38737 ft | 483 kts | 236° |
| 2026-05-04 21:26 | 52.05002 | -56.81692 | 38900 ft | 483 kts | 236° |
| 2026-05-04 21:26 | 52.01604 | -56.91054 | 39047 ft | 483 kts | 236° |
| 2026-05-04 21:27 | 51.98192 | -57.00411 | 39164 ft | 483 kts | 236° |
| 2026-05-04 21:27 | 51.94782 | -57.09739 | 39154 ft | 485 kts | 236° |
| 2026-05-04 21:28 | 51.91345 | -57.19105 | 39162 ft | 487 kts | 236° |
| 2026-05-04 21:28 | 51.87882 | -57.28508 | 39170 ft | 488 kts | 237° |
| 2026-05-04 21:29 | 51.84390 | -57.37953 | 39171 ft | 489 kts | 237° |
| 2026-05-04 21:29 | 51.80930 | -57.47278 | 39173 ft | 489 kts | 237° |
| 2026-05-04 21:30 | 51.77427 | -57.56681 | 39175 ft | 488 kts | 237° |
| 2026-05-04 21:30 | 51.73930 | -57.66032 | 39171 ft | 489 kts | 236° |
| 2026-05-04 21:31 | 51.68687 | -57.79988 | 39164 ft | 488 kts | 236° |
| 2026-05-04 21:32 | 51.65190 | -57.89257 | 39169 ft | 488 kts | 236° |
| 2026-05-04 21:32 | 51.61658 | -57.98587 | 39172 ft | 489 kts | 236° |
| 2026-05-04 21:33 | 51.58126 | -58.07879 | 39181 ft | 489 kts | 236° |
| 2026-05-04 21:33 | 51.54599 | -58.17127 | 39182 ft | 489 kts | 236° |
| 2026-05-04 21:34 | 51.51063 | -58.26364 | 39186 ft | 488 kts | 236° |
| 2026-05-04 21:34 | 51.47516 | -58.35596 | 39187 ft | 488 kts | 236° |
| 2026-05-04 21:35 | 51.43953 | -58.44838 | 39185 ft | 487 kts | 236° |
| 2026-05-04 21:35 | 51.40409 | -58.53994 | 39182 ft | 487 kts | 236° |
| 2026-05-04 21:36 | 51.36839 | -58.63189 | 39183 ft | 487 kts | 236° |
| 2026-05-04 21:36 | 51.33262 | -58.72367 | 39188 ft | 487 kts | 236° |
| 2026-05-04 21:37 | 51.29702 | -58.81465 | 39193 ft | 487 kts | 236° |
| 2026-05-04 21:37 | 51.26121 | -58.90589 | 39190 ft | 487 kts | 236° |
| 2026-05-04 21:38 | 51.22514 | -58.99749 | 39187 ft | 487 kts | 236° |
| 2026-05-04 21:38 | 51.18928 | -59.08819 | 39191 ft | 486 kts | 236° |
| 2026-05-04 21:39 | 51.15323 | -59.17907 | 39192 ft | 486 kts | 236° |
| 2026-05-04 21:39 | 51.11729 | -59.26934 | 39187 ft | 486 kts | 236° |
| 2026-05-04 21:40 | 51.08113 | -59.35986 | 39191 ft | 486 kts | 236° |
| 2026-05-04 21:40 | 51.04505 | -59.44986 | 39194 ft | 486 kts | 236° |
| 2026-05-04 21:41 | 51.00882 | -59.53991 | 39198 ft | 486 kts | 236° |
| 2026-05-04 21:41 | 50.97242 | -59.63007 | 39193 ft | 486 kts | 236° |
| 2026-05-04 21:42 | 50.93602 | -59.71995 | 39199 ft | 485 kts | 235° |
| 2026-05-04 21:42 | 50.89961 | -59.80953 | 39202 ft | 485 kts | 235° |
| 2026-05-04 21:43 | 50.86344 | -59.89824 | 39202 ft | 484 kts | 235° |
| 2026-05-04 21:43 | 50.82679 | -59.98779 | 39208 ft | 484 kts | 235° |
| 2026-05-04 21:44 | 50.79034 | -60.07650 | 39215 ft | 483 kts | 235° |
| 2026-05-04 21:44 | 50.75380 | -60.16516 | 39227 ft | 483 kts | 235° |
| 2026-05-04 21:45 | 50.71730 | -60.25343 | 39223 ft | 483 kts | 236° |
| 2026-05-04 21:45 | 50.68077 | -60.34148 | 39219 ft | 482 kts | 236° |
| 2026-05-04 21:46 | 50.64424 | -60.42924 | 39225 ft | 482 kts | 236° |
| 2026-05-04 21:46 | 50.60742 | -60.51741 | 39227 ft | 482 kts | 236° |
| 2026-05-04 21:47 | 50.57086 | -60.60466 | 39237 ft | 481 kts | 236° |
| 2026-05-04 21:47 | 50.53389 | -60.69255 | 39248 ft | 480 kts | 235° |
| 2026-05-04 21:48 | 50.49716 | -60.77963 | 39258 ft | 480 kts | 235° |
| 2026-05-04 21:48 | 50.46044 | -60.86637 | 39259 ft | 480 kts | 235° |
| 2026-05-04 21:49 | 50.42361 | -60.95308 | 39263 ft | 480 kts | 235° |
| 2026-05-04 21:49 | 50.38674 | -61.03961 | 39263 ft | 480 kts | 235° |
| 2026-05-04 21:50 | 50.34966 | -61.12635 | 39269 ft | 480 kts | 235° |
| 2026-05-04 21:50 | 50.31264 | -61.21266 | 39281 ft | 479 kts | 235° |
| 2026-05-04 21:51 | 50.27577 | -61.29835 | 39285 ft | 479 kts | 235° |
| 2026-05-04 21:51 | 50.23851 | -61.38465 | 39289 ft | 479 kts | 236° |
| 2026-05-04 21:52 | 50.20143 | -61.47025 | 39297 ft | 479 kts | 236° |
| 2026-05-04 21:52 | 50.16419 | -61.55595 | 39296 ft | 478 kts | 236° |
| 2026-05-04 21:53 | 50.12691 | -61.64146 | 39299 ft | 478 kts | 236° |
| 2026-05-04 21:53 | 50.08975 | -61.72641 | 39307 ft | 478 kts | 235° |
| 2026-05-04 21:54 | 50.05239 | -61.81156 | 39313 ft | 478 kts | 235° |
| 2026-05-04 21:54 | 50.01510 | -61.89627 | 39320 ft | 478 kts | 235° |
| 2026-05-04 21:55 | 49.97759 | -61.98119 | 39331 ft | 478 kts | 235° |
| 2026-05-04 21:55 | 49.94004 | -62.06596 | 39341 ft | 478 kts | 235° |
| 2026-05-04 21:56 | 49.90248 | -62.15048 | 39348 ft | 477 kts | 235° |
| 2026-05-04 21:56 | 49.86479 | -62.23502 | 39349 ft | 477 kts | 235° |
| 2026-05-04 21:57 | 49.82710 | -62.31926 | 39366 ft | 476 kts | 235° |
| 2026-05-04 21:57 | 49.78961 | -62.40281 | 39364 ft | 476 kts | 235° |
| 2026-05-04 21:58 | 49.75191 | -62.48657 | 39371 ft | 476 kts | 235° |
| 2026-05-04 21:58 | 49.71416 | -62.57016 | 39382 ft | 476 kts | 235° |
| 2026-05-04 21:59 | 49.67619 | -62.65399 | 39392 ft | 476 kts | 234° |
| 2026-05-04 21:59 | 49.63837 | -62.73722 | 39398 ft | 476 kts | 234° |
| 2026-05-04 22:00 | 49.60058 | -62.82010 | 39403 ft | 475 kts | 234° |
| 2026-05-04 22:00 | 49.56264 | -62.90307 | 39407 ft | 475 kts | 234° |
| 2026-05-04 22:01 | 49.52463 | -62.98594 | 39412 ft | 475 kts | 234° |
| 2026-05-04 22:01 | 49.48668 | -63.06842 | 39410 ft | 475 kts | 235° |
| 2026-05-04 22:02 | 49.44873 | -63.15066 | 39421 ft | 475 kts | 235° |
| 2026-05-04 22:02 | 49.41037 | -63.23352 | 39422 ft | 475 kts | 235° |
| 2026-05-04 22:03 | 49.37233 | -63.31543 | 39429 ft | 475 kts | 235° |
| 2026-05-04 22:03 | 49.33391 | -63.39790 | 39436 ft | 475 kts | 235° |
| 2026-05-04 22:04 | 49.29568 | -63.47974 | 39445 ft | 476 kts | 235° |
| 2026-05-04 22:04 | 49.25720 | -63.56184 | 39450 ft | 475 kts | 235° |
| 2026-05-04 22:05 | 49.21870 | -63.64372 | 39459 ft | 475 kts | 235° |
| 2026-05-04 22:05 | 49.18046 | -63.72479 | 39468 ft | 475 kts | 234° |
| 2026-05-04 22:06 | 49.14193 | -63.80624 | 39476 ft | 475 kts | 234° |
| 2026-05-04 22:06 | 49.10305 | -63.88821 | 39493 ft | 476 kts | 234° |
| 2026-05-04 22:07 | 49.06430 | -63.96965 | 39495 ft | 476 kts | 234° |
| 2026-05-04 22:07 | 49.02557 | -64.05079 | 39498 ft | 476 kts | 234° |
| 2026-05-04 22:08 | 48.98665 | -64.13209 | 39498 ft | 476 kts | 234° |
| 2026-05-04 22:08 | 48.94774 | -64.21309 | 39504 ft | 476 kts | 234° |
| 2026-05-04 22:09 | 48.90902 | -64.29344 | 39513 ft | 475 kts | 234° |
| 2026-05-04 22:09 | 48.87002 | -64.37417 | 39510 ft | 475 kts | 234° |
| 2026-05-04 22:10 | 48.83086 | -64.45496 | 39522 ft | 475 kts | 234° |
| 2026-05-04 22:10 | 48.79191 | -64.53513 | 39522 ft | 476 kts | 234° |
| 2026-05-04 22:11 | 48.75258 | -64.61581 | 39528 ft | 475 kts | 234° |
| 2026-05-04 22:11 | 48.71341 | -64.69591 | 39530 ft | 476 kts | 233° |
| 2026-05-04 22:12 | 48.67408 | -64.77612 | 39534 ft | 476 kts | 233° |
| 2026-05-04 22:12 | 48.63501 | -64.85555 | 39530 ft | 476 kts | 233° |
| 2026-05-04 22:13 | 48.59561 | -64.93539 | 39531 ft | 476 kts | 233° |
| 2026-05-04 22:13 | 48.55612 | -65.01520 | 39534 ft | 476 kts | 233° |
| 2026-05-04 22:14 | 48.51668 | -65.09467 | 39537 ft | 475 kts | 233° |
| 2026-05-04 22:14 | 48.47723 | -65.17394 | 39543 ft | 474 kts | 233° |
| 2026-05-04 22:15 | 48.43781 | -65.25293 | 39545 ft | 474 kts | 233° |
| 2026-05-04 22:15 | 48.39816 | -65.33212 | 39548 ft | 474 kts | 233° |
| 2026-05-04 22:16 | 48.35867 | -65.41079 | 39555 ft | 474 kts | 233° |
| 2026-05-04 22:16 | 48.31893 | -65.48968 | 39561 ft | 474 kts | 234° |
| 2026-05-04 22:17 | 48.27944 | -65.56788 | 39567 ft | 474 kts | 234° |
| 2026-05-04 22:17 | 48.23946 | -65.64682 | 39575 ft | 474 kts | 234° |
| 2026-05-04 22:18 | 48.19976 | -65.72495 | 39583 ft | 474 kts | 233° |
| 2026-05-04 22:18 | 48.15980 | -65.80341 | 39588 ft | 474 kts | 233° |
| 2026-05-04 22:19 | 48.12019 | -65.88094 | 39589 ft | 474 kts | 233° |
| 2026-05-04 22:19 | 48.08025 | -65.95888 | 39591 ft | 473 kts | 233° |
| 2026-05-04 22:20 | 48.04030 | -66.03662 | 39608 ft | 473 kts | 233° |
| 2026-05-04 22:20 | 48.00021 | -66.11442 | 39624 ft | 473 kts | 233° |
| 2026-05-04 22:21 | 47.96046 | -66.19138 | 39619 ft | 473 kts | 233° |
| 2026-05-04 22:21 | 47.92025 | -66.26897 | 39626 ft | 473 kts | 233° |
| 2026-05-04 22:22 | 47.88021 | -66.34601 | 39620 ft | 472 kts | 233° |
| 2026-05-04 22:22 | 47.83994 | -66.42326 | 39609 ft | 472 kts | 233° |
| 2026-05-04 22:23 | 47.79997 | -66.49972 | 39611 ft | 472 kts | 234° |
| 2026-05-04 22:23 | 47.75984 | -66.57628 | 39608 ft | 471 kts | 234° |
| 2026-05-04 22:24 | 47.71973 | -66.65263 | 39612 ft | 471 kts | 233° |
| 2026-05-04 22:24 | 47.67953 | -66.72892 | 39626 ft | 471 kts | 233° |
| 2026-05-04 22:25 | 47.63921 | -66.80521 | 39630 ft | 471 kts | 233° |
| 2026-05-04 22:25 | 47.59880 | -66.88147 | 39638 ft | 471 kts | 233° |
| 2026-05-04 22:26 | 47.55844 | -66.95741 | 39640 ft | 471 kts | 233° |
| 2026-05-04 22:26 | 47.51804 | -67.03323 | 39651 ft | 470 kts | 233° |
| 2026-05-04 22:27 | 47.47774 | -67.10870 | 39649 ft | 469 kts | 233° |
| 2026-05-04 22:27 | 47.43753 | -67.18384 | 39650 ft | 469 kts | 233° |
| 2026-05-04 22:28 | 47.39703 | -67.25922 | 39656 ft | 469 kts | 233° |
| 2026-05-04 22:28 | 47.35473 | -67.33153 | 39669 ft | 470 kts | 228° |
| 2026-05-04 22:29 | 47.30924 | -67.40078 | 39670 ft | 469 kts | 228° |
| 2026-05-04 22:29 | 47.26413 | -67.46954 | 39672 ft | 469 kts | 228° |
| 2026-05-04 22:30 | 47.21898 | -67.53820 | 39678 ft | 469 kts | 228° |
| 2026-05-04 22:30 | 47.17376 | -67.60677 | 39683 ft | 469 kts | 228° |
| 2026-05-04 22:31 | 47.12815 | -67.67575 | 39681 ft | 469 kts | 227° |
| 2026-05-04 22:31 | 47.08302 | -67.74384 | 39694 ft | 468 kts | 227° |
| 2026-05-04 22:32 | 47.03759 | -67.81218 | 39693 ft | 469 kts | 227° |
| 2026-05-04 22:32 | 46.99243 | -67.87997 | 39704 ft | 468 kts | 227° |
| 2026-05-04 22:33 | 46.94680 | -67.94826 | 39707 ft | 470 kts | 227° |
| 2026-05-04 22:33 | 46.90120 | -68.01633 | 39709 ft | 470 kts | 227° |
| 2026-05-04 22:34 | 46.85559 | -68.08424 | 39716 ft | 468 kts | 227° |
| 2026-05-04 22:34 | 46.81003 | -68.15192 | 39722 ft | 468 kts | 228° |
| 2026-05-04 22:35 | 46.76473 | -68.21900 | 39718 ft | 468 kts | 228° |
| 2026-05-04 22:35 | 46.71933 | -68.28606 | 39721 ft | 467 kts | 228° |
| 2026-05-04 22:36 | 46.67371 | -68.35331 | 39722 ft | 467 kts | 228° |
| 2026-05-04 22:36 | 46.62809 | -68.42040 | 39730 ft | 467 kts | 228° |
| 2026-05-04 22:37 | 46.58254 | -68.48721 | 39732 ft | 466 kts | 228° |
| 2026-05-04 22:37 | 46.53721 | -68.55350 | 39737 ft | 465 kts | 228° |
| 2026-05-04 22:38 | 46.49171 | -68.61987 | 39725 ft | 465 kts | 228° |
| 2026-05-04 22:38 | 46.44617 | -68.68616 | 39724 ft | 466 kts | 227° |
| 2026-05-04 22:39 | 46.40035 | -68.75266 | 39725 ft | 466 kts | 227° |
| 2026-05-04 22:39 | 46.35481 | -68.81861 | 39729 ft | 465 kts | 227° |
| 2026-05-04 22:40 | 46.30933 | -68.88431 | 39754 ft | 465 kts | 227° |
| 2026-05-04 22:40 | 46.26356 | -68.95025 | 39746 ft | 464 kts | 227° |
| 2026-05-04 22:41 | 46.21811 | -69.01556 | 39744 ft | 465 kts | 228° |
| 2026-05-04 22:41 | 46.17238 | -69.08112 | 39757 ft | 464 kts | 228° |
| 2026-05-04 22:42 | 46.12666 | -69.14651 | 39737 ft | 463 kts | 228° |
| 2026-05-04 22:42 | 46.08087 | -69.21183 | 39739 ft | 464 kts | 228° |
| 2026-05-04 22:43 | 46.03524 | -69.27677 | 39756 ft | 464 kts | 228° |
| 2026-05-04 22:43 | 45.98960 | -69.34156 | 39761 ft | 463 kts | 228° |
| 2026-05-04 22:44 | 45.94377 | -69.40647 | 39763 ft | 463 kts | 228° |
| 2026-05-04 22:44 | 45.89831 | -69.47068 | 39753 ft | 462 kts | 228° |
| 2026-05-04 22:45 | 45.85240 | -69.53541 | 39755 ft | 463 kts | 228° |
| 2026-05-04 22:45 | 45.78379 | -69.63178 | 39761 ft | 462 kts | 228° |
| 2026-05-04 22:46 | 45.73812 | -69.69572 | 39753 ft | 462 kts | 227° |
| 2026-05-04 22:46 | 45.69220 | -69.75993 | 39747 ft | 463 kts | 227° |
| 2026-05-04 22:47 | 45.64610 | -69.82416 | 39747 ft | 462 kts | 227° |
| 2026-05-04 22:47 | 45.60030 | -69.88785 | 39738 ft | 461 kts | 227° |
| 2026-05-04 22:48 | 45.55451 | -69.95138 | 39745 ft | 461 kts | 227° |
| 2026-05-04 22:48 | 45.50865 | -70.01485 | 39743 ft | 461 kts | 227° |
| 2026-05-04 22:49 | 45.46280 | -70.07812 | 39751 ft | 462 kts | 227° |
| 2026-05-04 22:49 | 45.41663 | -70.14172 | 39755 ft | 462 kts | 227° |
| 2026-05-04 22:50 | 45.37057 | -70.20505 | 39757 ft | 462 kts | 227° |
| 2026-05-04 22:50 | 45.32453 | -70.26813 | 39756 ft | 461 kts | 227° |
| 2026-05-04 22:51 | 45.27832 | -70.33131 | 39763 ft | 461 kts | 227° |
| 2026-05-04 22:51 | 45.23245 | -70.39390 | 39762 ft | 462 kts | 227° |
| 2026-05-04 22:52 | 45.18598 | -70.45712 | 39767 ft | 462 kts | 227° |
| 2026-05-04 22:52 | 45.13979 | -70.51986 | 39760 ft | 461 kts | 227° |
| 2026-05-04 22:53 | 45.09352 | -70.58251 | 39767 ft | 461 kts | 228° |
| 2026-05-04 22:53 | 45.04752 | -70.64468 | 39763 ft | 461 kts | 228° |
| 2026-05-04 22:54 | 45.00112 | -70.70725 | 39758 ft | 462 kts | 227° |
| 2026-05-04 22:54 | 44.95496 | -70.76933 | 39770 ft | 462 kts | 227° |
| 2026-05-04 22:55 | 44.90860 | -70.83155 | 39768 ft | 461 kts | 227° |
| 2026-05-04 22:55 | 44.86195 | -70.89403 | 39770 ft | 462 kts | 227° |
| 2026-05-04 22:56 | 44.81562 | -70.95591 | 39765 ft | 462 kts | 227° |
| 2026-05-04 22:56 | 44.76904 | -71.01797 | 39766 ft | 462 kts | 227° |
| 2026-05-04 22:57 | 44.72242 | -71.07995 | 39773 ft | 462 kts | 227° |
| 2026-05-04 22:57 | 44.67583 | -71.14175 | 39778 ft | 462 kts | 227° |
| 2026-05-04 22:58 | 44.62950 | -71.20306 | 39786 ft | 462 kts | 227° |
| 2026-05-04 22:58 | 44.58261 | -71.26497 | 39767 ft | 462 kts | 227° |
| 2026-05-04 22:59 | 44.53627 | -71.32602 | 39791 ft | 461 kts | 227° |
| 2026-05-04 22:59 | 44.48953 | -71.38746 | 39784 ft | 461 kts | 227° |
| 2026-05-04 23:00 | 44.44301 | -71.44849 | 39787 ft | 461 kts | 227° |
| 2026-05-04 23:00 | 44.39633 | -71.50959 | 39781 ft | 461 kts | 227° |
| 2026-05-04 23:01 | 44.34954 | -71.57070 | 39787 ft | 461 kts | 227° |
| 2026-05-04 23:01 | 44.30267 | -71.63179 | 39790 ft | 461 kts | 227° |
| 2026-05-04 23:02 | 44.25608 | -71.69235 | 39800 ft | 461 kts | 227° |
| 2026-05-04 23:02 | 44.21161 | -71.75591 | 39783 ft | 457 kts | 233° |
| 2026-05-04 23:03 | 44.17212 | -71.82471 | 39785 ft | 455 kts | 237° |
| 2026-05-04 23:03 | 44.13464 | -71.89555 | 39792 ft | 455 kts | 237° |
| 2026-05-04 23:04 | 44.09733 | -71.96577 | 39784 ft | 457 kts | 237° |
| 2026-05-04 23:04 | 44.05956 | -72.03677 | 39791 ft | 457 kts | 237° |
| 2026-05-04 23:05 | 44.02191 | -72.10739 | 39790 ft | 456 kts | 237° |
| 2026-05-04 23:05 | 43.98416 | -72.17801 | 39790 ft | 456 kts | 237° |
| 2026-05-04 23:06 | 43.94642 | -72.24843 | 39786 ft | 456 kts | 237° |
| 2026-05-04 23:06 | 43.90865 | -72.31876 | 39781 ft | 455 kts | 238° |
| 2026-05-04 23:07 | 43.87082 | -72.38901 | 39798 ft | 455 kts | 238° |
| 2026-05-04 23:07 | 43.83304 | -72.45906 | 39798 ft | 456 kts | 238° |
| 2026-05-04 23:08 | 43.79513 | -72.52914 | 39792 ft | 456 kts | 238° |
| 2026-05-04 23:08 | 43.75735 | -72.59882 | 39814 ft | 454 kts | 238° |
| 2026-05-04 23:09 | 43.71959 | -72.66830 | 39811 ft | 454 kts | 237° |
| 2026-05-04 23:09 | 43.68156 | -72.73810 | 39814 ft | 455 kts | 237° |
| 2026-05-04 23:10 | 43.64347 | -72.80785 | 39796 ft | 455 kts | 237° |
| 2026-05-04 23:10 | 43.60558 | -72.87709 | 39811 ft | 455 kts | 237° |
| 2026-05-04 23:11 | 43.56731 | -72.94682 | 39829 ft | 455 kts | 237° |
| 2026-05-04 23:11 | 43.52913 | -73.01624 | 39820 ft | 455 kts | 237° |
| 2026-05-04 23:12 | 43.49091 | -73.08558 | 39810 ft | 455 kts | 237° |
| 2026-05-04 23:12 | 43.45288 | -73.15442 | 39812 ft | 455 kts | 237° |
| 2026-05-04 23:13 | 43.41448 | -73.22380 | 39795 ft | 455 kts | 237° |
| 2026-05-04 23:13 | 43.37628 | -73.29263 | 39806 ft | 454 kts | 237° |
| 2026-05-04 23:14 | 43.33814 | -73.36123 | 39806 ft | 454 kts | 237° |
| 2026-05-04 23:14 | 43.29994 | -73.42982 | 39816 ft | 455 kts | 237° |
| 2026-05-04 23:15 | 43.26146 | -73.49848 | 39795 ft | 456 kts | 236° |
| 2026-05-04 23:15 | 43.24054 | -73.53124 | 39448 ft | 459 kts | 231° |
| 2026-05-04 23:15 | 43.21741 | -73.56119 | 39000 ft | 459 kts | 226° |
| 2026-05-04 23:16 | 43.19235 | -73.58819 | 38554 ft | 462 kts | 221° |
| 2026-05-04 23:16 | 43.16542 | -73.61220 | 38095 ft | 466 kts | 216° |
| 2026-05-04 23:16 | 43.13656 | -73.63312 | 37633 ft | 472 kts | 211° |
| 2026-05-04 23:16 | 43.10621 | -73.65044 | 37171 ft | 478 kts | 205° |
| 2026-05-04 23:17 | 43.07449 | -73.66471 | 36728 ft | 482 kts | 203° |
| 2026-05-04 23:17 | 43.04237 | -73.67831 | 36366 ft | 484 kts | 202° |
| 2026-05-04 23:17 | 43.01006 | -73.69187 | 35849 ft | 487 kts | 203° |
| 2026-05-04 23:17 | 42.97781 | -73.70541 | 35310 ft | 489 kts | 203° |
| 2026-05-04 23:18 | 42.94521 | -73.71915 | 34689 ft | 492 kts | 203° |
| 2026-05-04 23:18 | 42.91275 | -73.73287 | 34015 ft | 492 kts | 203° |
| 2026-05-04 23:18 | 42.88018 | -73.74665 | 33359 ft | 492 kts | 203° |
| 2026-05-04 23:18 | 42.84735 | -73.76054 | 32709 ft | 490 kts | 203° |
| 2026-05-04 23:19 | 42.81519 | -73.77413 | 32064 ft | 489 kts | 203° |
| 2026-05-04 23:19 | 42.78275 | -73.78779 | 31414 ft | 487 kts | 203° |
| 2026-05-04 23:19 | 42.75029 | -73.80148 | 30770 ft | 486 kts | 202° |
| 2026-05-04 23:19 | 42.71839 | -73.81531 | 30122 ft | 483 kts | 204° |
| 2026-05-04 23:20 | 42.68672 | -73.82951 | 29479 ft | 481 kts | 204° |
| 2026-05-04 23:20 | 42.65502 | -73.84383 | 28829 ft | 479 kts | 204° |
| 2026-05-04 23:20 | 42.62342 | -73.85807 | 28179 ft | 477 kts | 204° |
| 2026-05-04 23:20 | 42.59191 | -73.87225 | 27650 ft | 476 kts | 204° |
| 2026-05-04 23:21 | 42.56036 | -73.88641 | 27136 ft | 477 kts | 204° |
| 2026-05-04 23:21 | 42.52915 | -73.90037 | 26458 ft | 471 kts | 203° |
| 2026-05-04 23:21 | 42.49865 | -73.91398 | 25460 ft | 465 kts | 203° |
| 2026-05-04 23:21 | 42.46813 | -73.92758 | 24534 ft | 457 kts | 203° |
| 2026-05-04 23:22 | 42.43837 | -73.94084 | 23619 ft | 449 kts | 204° |
| 2026-05-04 23:22 | 42.40926 | -73.95380 | 22700 ft | 442 kts | 203° |
| 2026-05-04 23:22 | 42.37998 | -73.96687 | 21783 ft | 435 kts | 203° |
| 2026-05-04 23:22 | 42.35187 | -73.97938 | 21024 ft | 428 kts | 203° |
| 2026-05-04 23:23 | 42.32379 | -73.99188 | 20535 ft | 424 kts | 203° |
| 2026-05-04 23:23 | 42.29569 | -74.00438 | 20047 ft | 420 kts | 203° |
| 2026-05-04 23:23 | 42.26848 | -74.01646 | 19593 ft | 415 kts | 203° |
| 2026-05-04 23:23 | 42.24083 | -74.02869 | 19132 ft | 411 kts | 202° |
| 2026-05-04 23:24 | 42.21414 | -74.04050 | 18689 ft | 407 kts | 203° |
| 2026-05-04 23:24 | 42.18714 | -74.05241 | 18245 ft | 402 kts | 203° |
| 2026-05-04 23:24 | 42.16093 | -74.06399 | 17816 ft | 399 kts | 203° |
| 2026-05-04 23:24 | 42.13458 | -74.07562 | 17379 ft | 395 kts | 203° |
| 2026-05-04 23:25 | 42.10876 | -74.08701 | 16942 ft | 392 kts | 203° |
| 2026-05-04 23:25 | 42.08286 | -74.09843 | 16504 ft | 389 kts | 203° |
| 2026-05-04 23:25 | 42.05725 | -74.10972 | 16071 ft | 386 kts | 202° |
| 2026-05-04 23:25 | 42.03185 | -74.12087 | 15638 ft | 383 kts | 202° |
| 2026-05-04 23:26 | 42.00661 | -74.13194 | 15206 ft | 381 kts | 203° |
| 2026-05-04 23:26 | 41.98134 | -74.14300 | 14767 ft | 379 kts | 202° |
| 2026-05-04 23:26 | 41.95642 | -74.15394 | 14339 ft | 376 kts | 202° |
| 2026-05-04 23:26 | 41.93167 | -74.16478 | 13917 ft | 374 kts | 202° |
| 2026-05-04 23:27 | 41.90711 | -74.17552 | 13486 ft | 371 kts | 202° |
| 2026-05-04 23:27 | 41.88271 | -74.18619 | 13057 ft | 369 kts | 202° |
| 2026-05-04 23:27 | 41.88199 | -74.18651 | 13045 ft | 369 kts | 202° |
| 2026-05-04 23:28 | 41.86358 | -74.19454 | 12724 ft | 367 kts | 203° |
| 2026-05-04 23:28 | 41.83947 | -74.20506 | 12298 ft | 364 kts | 202° |
| 2026-05-04 23:28 | 41.81579 | -74.21538 | 11887 ft | 362 kts | 202° |
| 2026-05-04 23:28 | 41.79224 | -74.22566 | 11463 ft | 360 kts | 202° |
| 2026-05-04 23:29 | 41.76854 | -74.23601 | 11018 ft | 357 kts | 202° |
| 2026-05-04 23:29 | 41.74486 | -74.24631 | 10714 ft | 350 kts | 202° |
| 2026-05-04 23:29 | 41.72227 | -74.25612 | 10598 ft | 336 kts | 202° |
| 2026-05-04 23:29 | 41.70051 | -74.26554 | 10529 ft | 323 kts | 202° |
| 2026-05-04 23:30 | 41.67968 | -74.27458 | 10354 ft | 311 kts | 202° |
| 2026-05-04 23:30 | 41.65928 | -74.28345 | 10278 ft | 299 kts | 203° |
| 2026-05-04 23:30 | 41.64009 | -74.29176 | 10175 ft | 286 kts | 203° |
| 2026-05-04 23:30 | 41.62134 | -74.29989 | 10115 ft | 275 kts | 204° |
| 2026-05-04 23:31 | 41.60348 | -74.30763 | 10036 ft | 270 kts | 204° |
| 2026-05-04 23:31 | 41.58545 | -74.31552 | 9488 ft | 277 kts | 203° |
| 2026-05-04 23:31 | 41.56701 | -74.32359 | 9001 ft | 282 kts | 203° |
| 2026-05-04 23:31 | 41.54832 | -74.33167 | 8716 ft | 280 kts | 202° |
| 2026-05-04 23:32 | 41.52998 | -74.33958 | 8389 ft | 277 kts | 203° |
| 2026-05-04 23:32 | 41.51178 | -74.34744 | 8082 ft | 275 kts | 202° |
| 2026-05-04 23:32 | 41.49353 | -74.35531 | 7729 ft | 274 kts | 202° |
| 2026-05-04 23:32 | 41.47554 | -74.36307 | 7407 ft | 273 kts | 202° |
| 2026-05-04 23:33 | 41.45738 | -74.37093 | 7094 ft | 271 kts | 202° |
| 2026-05-04 23:33 | 41.43969 | -74.37852 | 6855 ft | 267 kts | 202° |
| 2026-05-04 23:33 | 41.42199 | -74.38616 | 6495 ft | 267 kts | 202° |
| 2026-05-04 23:33 | 41.40444 | -74.39372 | 6261 ft | 266 kts | 202° |
| 2026-05-04 23:34 | 41.38680 | -74.40133 | 6059 ft | 265 kts | 202° |
| 2026-05-04 23:34 | 41.36927 | -74.40887 | 6016 ft | 264 kts | 202° |
| 2026-05-04 23:34 | 41.35172 | -74.41640 | 6006 ft | 264 kts | 202° |
| 2026-05-04 23:34 | 41.33446 | -74.42381 | 6007 ft | 263 kts | 202° |
| 2026-05-04 23:35 | 41.31689 | -74.43134 | 6006 ft | 264 kts | 202° |
| 2026-05-04 23:35 | 41.29929 | -74.43892 | 6012 ft | 265 kts | 202° |
| 2026-05-04 23:35 | 41.28165 | -74.44646 | 6001 ft | 265 kts | 201° |
| 2026-05-04 23:35 | 41.26334 | -74.44960 | 5975 ft | 274 kts | 177° |
| 2026-05-04 23:36 | 41.24502 | -74.44107 | 5962 ft | 282 kts | 154° |
| 2026-05-04 23:36 | 41.22858 | -74.42696 | 6012 ft | 284 kts | 149° |
| 2026-05-04 23:36 | 41.21230 | -74.41162 | 6028 ft | 285 kts | 148° |
| 2026-05-04 23:36 | 41.19627 | -74.39630 | 6022 ft | 285 kts | 148° |
| 2026-05-04 23:37 | 41.18027 | -74.38094 | 6008 ft | 285 kts | 148° |
| 2026-05-04 23:37 | 41.16425 | -74.36556 | 6016 ft | 285 kts | 148° |
| 2026-05-04 23:37 | 41.14829 | -74.34999 | 5998 ft | 285 kts | 143° |
| 2026-05-04 23:37 | 41.13350 | -74.33193 | 5826 ft | 286 kts | 139° |
| 2026-05-04 23:38 | 41.11954 | -74.31338 | 5639 ft | 285 kts | 138° |
| 2026-05-04 23:38 | 41.10574 | -74.29474 | 5430 ft | 284 kts | 137° |
| 2026-05-04 23:38 | 41.09193 | -74.27606 | 5213 ft | 282 kts | 137° |
| 2026-05-04 23:38 | 41.07809 | -74.25733 | 5043 ft | 282 kts | 137° |
| 2026-05-04 23:39 | 41.06458 | -74.23907 | 5016 ft | 281 kts | 137° |
| 2026-05-04 23:39 | 41.05079 | -74.22043 | 5020 ft | 282 kts | 137° |
| 2026-05-04 23:39 | 41.03709 | -74.20197 | 4977 ft | 282 kts | 137° |
| 2026-05-04 23:39 | 41.02330 | -74.18343 | 4801 ft | 280 kts | 137° |
| 2026-05-04 23:40 | 41.00978 | -74.16522 | 4630 ft | 279 kts | 137° |
| 2026-05-04 23:40 | 40.99582 | -74.14752 | 4448 ft | 274 kts | 148° |
| 2026-05-04 23:40 | 40.97964 | -74.13496 | 4280 ft | 264 kts | 156° |
| 2026-05-04 23:40 | 40.96373 | -74.12406 | 4108 ft | 257 kts | 157° |
| 2026-05-04 23:41 | 40.94810 | -74.11353 | 4017 ft | 247 kts | 158° |
| 2026-05-04 23:41 | 40.93307 | -74.10327 | 4003 ft | 234 kts | 158° |
| 2026-05-04 23:41 | 40.91916 | -74.09360 | 4034 ft | 216 kts | 158° |
| 2026-05-04 23:41 | 40.90575 | -74.08653 | 3902 ft | 200 kts | 172° |
| 2026-05-04 23:42 | 40.89257 | -74.08328 | 3737 ft | 190 kts | 176° |
| 2026-05-04 23:42 | 40.87982 | -74.08063 | 3537 ft | 183 kts | 177° |
| 2026-05-04 23:42 | 40.86736 | -74.07814 | 3314 ft | 177 kts | 177° |
| 2026-05-04 23:42 | 40.85533 | -74.07571 | 3111 ft | 171 kts | 177° |
| 2026-05-04 23:43 | 40.84371 | -74.07415 | 3013 ft | 165 kts | 189° |
| 2026-05-04 23:43 | 40.83270 | -74.07715 | 2856 ft | 163 kts | 202° |
| 2026-05-04 23:43 | 40.82217 | -74.08251 | 2630 ft | 156 kts | 207° |
| 2026-05-04 23:43 | 40.81256 | -74.08835 | 2419 ft | 149 kts | 208° |
| 2026-05-04 23:44 | 40.80329 | -74.09425 | 2231 ft | 148 kts | 209° |
| 2026-05-04 23:44 | 40.79404 | -74.10018 | 2047 ft | 148 kts | 209° |
| 2026-05-04 23:44 | 40.78485 | -74.10605 | 1861 ft | 147 kts | 209° |
| 2026-05-04 23:44 | 40.77555 | -74.11197 | 1671 ft | 147 kts | 208° |
| 2026-05-04 23:45 | 40.76636 | -74.11780 | 1480 ft | 146 kts | 208° |
| 2026-05-04 23:45 | 40.75715 | -74.12366 | 1286 ft | 146 kts | 208° |
| 2026-05-04 23:45 | 40.74806 | -74.12943 | 1097 ft | 145 kts | 208° |
| 2026-05-04 23:45 | 40.73900 | -74.13520 | 901 ft | 145 kts | 207° |
| 2026-05-04 23:46 | 40.72990 | -74.14095 | 687 ft | 145 kts | 207° |
| 2026-05-04 23:46 | 40.72082 | -74.14671 | 498 ft | 144 kts | 207° |
| 2026-05-04 23:46 | 40.71177 | -74.15253 | 325 ft | 144 kts | 207° |
| 2026-05-04 23:46 | 40.70271 | -74.15827 | 144 ft | 144 kts | 207° |
| 2026-05-04 23:47 | 40.69389 | -74.16392 | 27 ft | 132 kts | 207° |
| 2026-05-04 23:47 | 40.68800 | -74.16766 | 27 ft | 55 kts | 206° |
| 2026-05-04 23:47 | 40.68549 | -74.16925 | 27 ft | 32 kts | 206° |
| 2026-05-04 23:47 | 40.68397 | -74.17031 | 27 ft | 22 kts | 213° |
| 2026-05-04 23:48 | 40.68297 | -74.17141 | 27 ft | 12 kts | 229° |
| 2026-05-04 23:48 | 40.68254 | -74.17210 | 27 ft | 6 kts | 232° |
| 2026-05-04 23:48 | 40.68219 | -74.17271 | 27 ft | 10 kts | 233° |
| 2026-05-04 23:48 | 40.68179 | -74.17345 | 27 ft | 9 kts | 234° |
| 2026-05-04 23:49 | 40.68148 | -74.17419 | 27 ft | 8 kts | 263° |
| 2026-05-04 23:49 | 40.68167 | -74.17501 | 27 ft | 11 kts | 295° |
| 2026-05-04 23:49 | 40.68202 | -74.17600 | 27 ft | 8 kts | 295° |
| 2026-05-04 23:49 | 40.68230 | -74.17663 | 27 ft | 9 kts | 315° |
| 2026-05-04 23:50 | 40.68293 | -74.17715 | 27 ft | 11 kts | 344° |
| 2026-05-04 23:50 | 40.68380 | -74.17693 | 27 ft | 14 kts | 25° |
| 2026-05-04 23:50 | 40.68479 | -74.17630 | 27 ft | 16 kts | 26° |
| 2026-05-04 23:50 | 40.68590 | -74.17561 | 27 ft | 18 kts | 25° |
| 2026-05-04 23:51 | 40.68709 | -74.17486 | 27 ft | 17 kts | 26° |
| 2026-05-04 23:51 | 40.68805 | -74.17424 | 27 ft | 16 kts | 26° |
| 2026-05-04 23:51 | 40.68899 | -74.17364 | 27 ft | 14 kts | 26° |
| 2026-05-04 23:51 | 40.68961 | -74.17325 | 27 ft | 7 kts | 25° |
| 2026-05-04 23:52 | 40.69020 | -74.17288 | 27 ft | 11 kts | 26° |
| 2026-05-04 23:52 | 40.69068 | -74.17259 | 27 ft | 4 kts | 13° |
| 2026-05-04 23:52 | 40.69093 | -74.17271 | 27 ft | 5 kts | 325° |
| 2026-05-04 23:52 | 40.69107 | -74.17298 | 27 ft | 3 kts | 277° |
| 2026-05-04 23:53 | 40.69107 | -74.17320 | 27 ft | 3 kts | 271° |
| 2026-05-04 23:53 | 40.69117 | -74.17346 | 27 ft | 2 kts | 312° |
| 2026-05-04 23:53 | 40.69131 | -74.17360 | 27 ft | 1 kts | 324° |
| 2026-05-04 23:53 | 40.69137 | -74.17365 | 27 ft | 0 kts | 324° |